<?xml version="1.0" encoding="UTF-8" standalone="no" ?>
<gpx xmlns="http://www.topografix.com/GPX/1/1" xmlns:xsi="http://www.w3.org/2001/XMLSchema-instance" xsi:schemaLocation="http://www.topografix.com/GPX/1/1 http://www.topografix.com/GPX/1/1/gpx.xsd" version="1.1" creator="VisuGPX - https://www.visugpx.com">
  <metadata>
    <name>83-D-St Antonin</name>
    <desc><![CDATA[83-D-St Antonin : vers Entrecasteaux]]></desc>
  </metadata>
  <trk>
    <name><![CDATA[2017-01-15-D-st antonin]]></name>
    <trkseg>
      <trkpt lat="43.50712" lon="6.28775">
        <ele>193.2</ele>
        <time>2017-01-15T08:23:00Z</time>
      </trkpt>
      <trkpt lat="43.50712" lon="6.28775">
        <ele>193.2</ele>
        <time>2017-01-15T08:23:01Z</time>
      </trkpt>
      <trkpt lat="43.50704" lon="6.2877">
        <ele>191.8</ele>
        <time>2017-01-15T08:24:01Z</time>
      </trkpt>
      <trkpt lat="43.50696" lon="6.28764">
        <ele>191.7</ele>
        <time>2017-01-15T08:24:20Z</time>
      </trkpt>
      <trkpt lat="43.50688" lon="6.28757">
        <ele>191.7</ele>
        <time>2017-01-15T08:24:27Z</time>
      </trkpt>
      <trkpt lat="43.50681" lon="6.28746">
        <ele>191.8</ele>
        <time>2017-01-15T08:24:36Z</time>
      </trkpt>
      <trkpt lat="43.50675" lon="6.28736">
        <ele>191.9</ele>
        <time>2017-01-15T08:24:45Z</time>
      </trkpt>
      <trkpt lat="43.5067" lon="6.28724">
        <ele>191.9</ele>
        <time>2017-01-15T08:24:54Z</time>
      </trkpt>
      <trkpt lat="43.50664" lon="6.28715">
        <ele>192</ele>
        <time>2017-01-15T08:25:02Z</time>
      </trkpt>
      <trkpt lat="43.50656" lon="6.28706">
        <ele>192</ele>
        <time>2017-01-15T08:25:10Z</time>
      </trkpt>
      <trkpt lat="43.50649" lon="6.28696">
        <ele>192</ele>
        <time>2017-01-15T08:25:20Z</time>
      </trkpt>
      <trkpt lat="43.50644" lon="6.28684">
        <ele>191.6</ele>
        <time>2017-01-15T08:25:27Z</time>
      </trkpt>
      <trkpt lat="43.50637" lon="6.28676">
        <ele>191.4</ele>
        <time>2017-01-15T08:25:34Z</time>
      </trkpt>
      <trkpt lat="43.50631" lon="6.28666">
        <ele>191.5</ele>
        <time>2017-01-15T08:25:40Z</time>
      </trkpt>
      <trkpt lat="43.50625" lon="6.28655">
        <ele>191.6</ele>
        <time>2017-01-15T08:25:46Z</time>
      </trkpt>
      <trkpt lat="43.50616" lon="6.28649">
        <ele>191.7</ele>
        <time>2017-01-15T08:25:51Z</time>
      </trkpt>
      <trkpt lat="43.50612" lon="6.28635">
        <ele>191.7</ele>
        <time>2017-01-15T08:25:59Z</time>
      </trkpt>
      <trkpt lat="43.50607" lon="6.28624">
        <ele>191.7</ele>
        <time>2017-01-15T08:26:05Z</time>
      </trkpt>
      <trkpt lat="43.50602" lon="6.28613">
        <ele>191.4</ele>
        <time>2017-01-15T08:26:14Z</time>
      </trkpt>
      <trkpt lat="43.50598" lon="6.286">
        <ele>191</ele>
        <time>2017-01-15T08:26:21Z</time>
      </trkpt>
      <trkpt lat="43.506" lon="6.28587">
        <ele>190.1</ele>
        <time>2017-01-15T08:26:32Z</time>
      </trkpt>
      <trkpt lat="43.50602" lon="6.28575">
        <ele>189.3</ele>
        <time>2017-01-15T08:26:56Z</time>
      </trkpt>
      <trkpt lat="43.506" lon="6.28562">
        <ele>189</ele>
        <time>2017-01-15T08:27:07Z</time>
      </trkpt>
      <trkpt lat="43.50602" lon="6.28549">
        <ele>188.9</ele>
        <time>2017-01-15T08:27:16Z</time>
      </trkpt>
      <trkpt lat="43.50606" lon="6.28537">
        <ele>188.6</ele>
        <time>2017-01-15T08:27:24Z</time>
      </trkpt>
      <trkpt lat="43.50611" lon="6.28526">
        <ele>188.3</ele>
        <time>2017-01-15T08:27:31Z</time>
      </trkpt>
      <trkpt lat="43.50612" lon="6.28513">
        <ele>188</ele>
        <time>2017-01-15T08:27:38Z</time>
      </trkpt>
      <trkpt lat="43.50614" lon="6.285">
        <ele>187.9</ele>
        <time>2017-01-15T08:27:45Z</time>
      </trkpt>
      <trkpt lat="43.50618" lon="6.28487">
        <ele>187.8</ele>
        <time>2017-01-15T08:27:54Z</time>
      </trkpt>
      <trkpt lat="43.5062" lon="6.28473">
        <ele>187.7</ele>
        <time>2017-01-15T08:28:00Z</time>
      </trkpt>
      <trkpt lat="43.50621" lon="6.28459">
        <ele>187.7</ele>
        <time>2017-01-15T08:28:08Z</time>
      </trkpt>
      <trkpt lat="43.50622" lon="6.28445">
        <ele>187.6</ele>
        <time>2017-01-15T08:28:16Z</time>
      </trkpt>
      <trkpt lat="43.50623" lon="6.28432">
        <ele>187.4</ele>
        <time>2017-01-15T08:28:22Z</time>
      </trkpt>
      <trkpt lat="43.50621" lon="6.2842">
        <ele>187.1</ele>
        <time>2017-01-15T08:28:30Z</time>
      </trkpt>
      <trkpt lat="43.50621" lon="6.28407">
        <ele>186.9</ele>
        <time>2017-01-15T08:28:37Z</time>
      </trkpt>
      <trkpt lat="43.5062" lon="6.28393">
        <ele>186.7</ele>
        <time>2017-01-15T08:28:45Z</time>
      </trkpt>
      <trkpt lat="43.50617" lon="6.2838">
        <ele>186.5</ele>
        <time>2017-01-15T08:28:52Z</time>
      </trkpt>
      <trkpt lat="43.50618" lon="6.28367">
        <ele>186.1</ele>
        <time>2017-01-15T08:29:00Z</time>
      </trkpt>
      <trkpt lat="43.50612" lon="6.28357">
        <ele>185.5</ele>
        <time>2017-01-15T08:29:06Z</time>
      </trkpt>
      <trkpt lat="43.50606" lon="6.28345">
        <ele>185</ele>
        <time>2017-01-15T08:29:12Z</time>
      </trkpt>
      <trkpt lat="43.506" lon="6.28334">
        <ele>184.3</ele>
        <time>2017-01-15T08:29:19Z</time>
      </trkpt>
      <trkpt lat="43.50594" lon="6.28324">
        <ele>183.3</ele>
        <time>2017-01-15T08:29:28Z</time>
      </trkpt>
      <trkpt lat="43.50591" lon="6.2831">
        <ele>182.6</ele>
        <time>2017-01-15T08:29:35Z</time>
      </trkpt>
      <trkpt lat="43.50586" lon="6.283">
        <ele>182</ele>
        <time>2017-01-15T08:29:41Z</time>
      </trkpt>
      <trkpt lat="43.50583" lon="6.28288">
        <ele>181.1</ele>
        <time>2017-01-15T08:29:50Z</time>
      </trkpt>
      <trkpt lat="43.5058" lon="6.28275">
        <ele>180.2</ele>
        <time>2017-01-15T08:29:57Z</time>
      </trkpt>
      <trkpt lat="43.50578" lon="6.28263">
        <ele>178.7</ele>
        <time>2017-01-15T08:30:07Z</time>
      </trkpt>
      <trkpt lat="43.50575" lon="6.28251">
        <ele>177.6</ele>
        <time>2017-01-15T08:30:17Z</time>
      </trkpt>
      <trkpt lat="43.50573" lon="6.28238">
        <ele>176.8</ele>
        <time>2017-01-15T08:30:25Z</time>
      </trkpt>
      <trkpt lat="43.50569" lon="6.28225">
        <ele>176.1</ele>
        <time>2017-01-15T08:30:33Z</time>
      </trkpt>
      <trkpt lat="43.50567" lon="6.28213">
        <ele>175.6</ele>
        <time>2017-01-15T08:30:42Z</time>
      </trkpt>
      <trkpt lat="43.50565" lon="6.28199">
        <ele>175.4</ele>
        <time>2017-01-15T08:30:50Z</time>
      </trkpt>
      <trkpt lat="43.50561" lon="6.28187">
        <ele>175.3</ele>
        <time>2017-01-15T08:30:58Z</time>
      </trkpt>
      <trkpt lat="43.50558" lon="6.28174">
        <ele>175.1</ele>
        <time>2017-01-15T08:31:04Z</time>
      </trkpt>
      <trkpt lat="43.50553" lon="6.28163">
        <ele>174.1</ele>
        <time>2017-01-15T08:31:14Z</time>
      </trkpt>
      <trkpt lat="43.50546" lon="6.28156">
        <ele>173.1</ele>
        <time>2017-01-15T08:31:23Z</time>
      </trkpt>
      <trkpt lat="43.50541" lon="6.28145">
        <ele>171.8</ele>
        <time>2017-01-15T08:31:32Z</time>
      </trkpt>
      <trkpt lat="43.50535" lon="6.28133">
        <ele>170.8</ele>
        <time>2017-01-15T08:31:39Z</time>
      </trkpt>
      <trkpt lat="43.50533" lon="6.2812">
        <ele>169.7</ele>
        <time>2017-01-15T08:31:47Z</time>
      </trkpt>
      <trkpt lat="43.50528" lon="6.28108">
        <ele>168.7</ele>
        <time>2017-01-15T08:31:54Z</time>
      </trkpt>
      <trkpt lat="43.50524" lon="6.28097">
        <ele>167.4</ele>
        <time>2017-01-15T08:32:02Z</time>
      </trkpt>
      <trkpt lat="43.50518" lon="6.28087">
        <ele>166.7</ele>
        <time>2017-01-15T08:32:08Z</time>
      </trkpt>
      <trkpt lat="43.50514" lon="6.28074">
        <ele>165.4</ele>
        <time>2017-01-15T08:32:17Z</time>
      </trkpt>
      <trkpt lat="43.50508" lon="6.28064">
        <ele>164.3</ele>
        <time>2017-01-15T08:32:24Z</time>
      </trkpt>
      <trkpt lat="43.505" lon="6.28055">
        <ele>163.3</ele>
        <time>2017-01-15T08:32:31Z</time>
      </trkpt>
      <trkpt lat="43.50493" lon="6.28046">
        <ele>162.3</ele>
        <time>2017-01-15T08:32:40Z</time>
      </trkpt>
      <trkpt lat="43.50486" lon="6.28039">
        <ele>161.4</ele>
        <time>2017-01-15T08:32:48Z</time>
      </trkpt>
      <trkpt lat="43.50478" lon="6.28031">
        <ele>160.4</ele>
        <time>2017-01-15T08:32:58Z</time>
      </trkpt>
      <trkpt lat="43.5047" lon="6.28023">
        <ele>159.4</ele>
        <time>2017-01-15T08:33:12Z</time>
      </trkpt>
      <trkpt lat="43.50462" lon="6.28015">
        <ele>159.1</ele>
        <time>2017-01-15T08:33:21Z</time>
      </trkpt>
      <trkpt lat="43.50456" lon="6.28005">
        <ele>158.9</ele>
        <time>2017-01-15T08:33:28Z</time>
      </trkpt>
      <trkpt lat="43.50451" lon="6.27993">
        <ele>159</ele>
        <time>2017-01-15T08:33:37Z</time>
      </trkpt>
      <trkpt lat="43.50448" lon="6.27981">
        <ele>159.2</ele>
        <time>2017-01-15T08:33:44Z</time>
      </trkpt>
      <trkpt lat="43.50445" lon="6.27968">
        <ele>159.4</ele>
        <time>2017-01-15T08:33:52Z</time>
      </trkpt>
      <trkpt lat="43.50443" lon="6.27956">
        <ele>160.2</ele>
        <time>2017-01-15T08:34:01Z</time>
      </trkpt>
      <trkpt lat="43.50438" lon="6.27944">
        <ele>161</ele>
        <time>2017-01-15T08:34:12Z</time>
      </trkpt>
      <trkpt lat="43.50436" lon="6.27931">
        <ele>161.8</ele>
        <time>2017-01-15T08:34:21Z</time>
      </trkpt>
      <trkpt lat="43.50432" lon="6.2792">
        <ele>162.5</ele>
        <time>2017-01-15T08:34:28Z</time>
      </trkpt>
      <trkpt lat="43.50431" lon="6.27908">
        <ele>164.1</ele>
        <time>2017-01-15T08:34:39Z</time>
      </trkpt>
      <trkpt lat="43.5043" lon="6.27893">
        <ele>165.5</ele>
        <time>2017-01-15T08:34:50Z</time>
      </trkpt>
      <trkpt lat="43.50432" lon="6.2788">
        <ele>166.4</ele>
        <time>2017-01-15T08:34:57Z</time>
      </trkpt>
      <trkpt lat="43.50428" lon="6.27868">
        <ele>167.1</ele>
        <time>2017-01-15T08:35:05Z</time>
      </trkpt>
      <trkpt lat="43.50423" lon="6.27857">
        <ele>167.9</ele>
        <time>2017-01-15T08:35:13Z</time>
      </trkpt>
      <trkpt lat="43.50422" lon="6.27843">
        <ele>168.7</ele>
        <time>2017-01-15T08:35:20Z</time>
      </trkpt>
      <trkpt lat="43.5042" lon="6.27831">
        <ele>169.2</ele>
        <time>2017-01-15T08:35:27Z</time>
      </trkpt>
      <trkpt lat="43.50416" lon="6.27818">
        <ele>169.4</ele>
        <time>2017-01-15T08:35:33Z</time>
      </trkpt>
      <trkpt lat="43.50411" lon="6.27808">
        <ele>169.6</ele>
        <time>2017-01-15T08:35:40Z</time>
      </trkpt>
      <trkpt lat="43.50403" lon="6.27801">
        <ele>169.7</ele>
        <time>2017-01-15T08:35:46Z</time>
      </trkpt>
      <trkpt lat="43.50394" lon="6.27797">
        <ele>169.6</ele>
        <time>2017-01-15T08:35:53Z</time>
      </trkpt>
      <trkpt lat="43.50385" lon="6.27792">
        <ele>169</ele>
        <time>2017-01-15T08:36:02Z</time>
      </trkpt>
      <trkpt lat="43.50378" lon="6.27785">
        <ele>168.6</ele>
        <time>2017-01-15T08:36:10Z</time>
      </trkpt>
      <trkpt lat="43.50369" lon="6.27778">
        <ele>168.1</ele>
        <time>2017-01-15T08:36:19Z</time>
      </trkpt>
      <trkpt lat="43.50363" lon="6.27769">
        <ele>167.5</ele>
        <time>2017-01-15T08:36:27Z</time>
      </trkpt>
      <trkpt lat="43.50359" lon="6.27757">
        <ele>166.9</ele>
        <time>2017-01-15T08:36:38Z</time>
      </trkpt>
      <trkpt lat="43.50356" lon="6.27745">
        <ele>166.2</ele>
        <time>2017-01-15T08:36:46Z</time>
      </trkpt>
      <trkpt lat="43.50355" lon="6.27732">
        <ele>165.8</ele>
        <time>2017-01-15T08:36:52Z</time>
      </trkpt>
      <trkpt lat="43.50354" lon="6.27719">
        <ele>165.4</ele>
        <time>2017-01-15T08:37:00Z</time>
      </trkpt>
      <trkpt lat="43.5035" lon="6.27705">
        <ele>165</ele>
        <time>2017-01-15T08:37:07Z</time>
      </trkpt>
      <trkpt lat="43.50348" lon="6.27692">
        <ele>164.7</ele>
        <time>2017-01-15T08:37:16Z</time>
      </trkpt>
      <trkpt lat="43.50346" lon="6.27679">
        <ele>164.7</ele>
        <time>2017-01-15T08:37:24Z</time>
      </trkpt>
      <trkpt lat="43.50347" lon="6.27665">
        <ele>164.7</ele>
        <time>2017-01-15T08:37:32Z</time>
      </trkpt>
      <trkpt lat="43.50344" lon="6.27653">
        <ele>164.9</ele>
        <time>2017-01-15T08:37:39Z</time>
      </trkpt>
      <trkpt lat="43.50343" lon="6.2764">
        <ele>165.1</ele>
        <time>2017-01-15T08:37:47Z</time>
      </trkpt>
      <trkpt lat="43.50339" lon="6.27628">
        <ele>165.3</ele>
        <time>2017-01-15T08:37:54Z</time>
      </trkpt>
      <trkpt lat="43.50333" lon="6.27617">
        <ele>165.4</ele>
        <time>2017-01-15T08:38:02Z</time>
      </trkpt>
      <trkpt lat="43.50329" lon="6.27606">
        <ele>165.5</ele>
        <time>2017-01-15T08:38:09Z</time>
      </trkpt>
      <trkpt lat="43.50325" lon="6.27593">
        <ele>165.6</ele>
        <time>2017-01-15T08:38:17Z</time>
      </trkpt>
      <trkpt lat="43.50321" lon="6.27582">
        <ele>165.8</ele>
        <time>2017-01-15T08:38:25Z</time>
      </trkpt>
      <trkpt lat="43.50318" lon="6.27568">
        <ele>166.1</ele>
        <time>2017-01-15T08:38:33Z</time>
      </trkpt>
      <trkpt lat="43.50313" lon="6.27557">
        <ele>166.4</ele>
        <time>2017-01-15T08:38:41Z</time>
      </trkpt>
      <trkpt lat="43.5031" lon="6.27543">
        <ele>166.7</ele>
        <time>2017-01-15T08:38:49Z</time>
      </trkpt>
      <trkpt lat="43.50305" lon="6.27532">
        <ele>166.8</ele>
        <time>2017-01-15T08:38:57Z</time>
      </trkpt>
      <trkpt lat="43.50298" lon="6.27522">
        <ele>167.2</ele>
        <time>2017-01-15T08:39:05Z</time>
      </trkpt>
      <trkpt lat="43.50292" lon="6.27512">
        <ele>167.6</ele>
        <time>2017-01-15T08:39:14Z</time>
      </trkpt>
      <trkpt lat="43.50286" lon="6.27501">
        <ele>167.8</ele>
        <time>2017-01-15T08:39:23Z</time>
      </trkpt>
      <trkpt lat="43.5028" lon="6.2749">
        <ele>167.8</ele>
        <time>2017-01-15T08:39:31Z</time>
      </trkpt>
      <trkpt lat="43.50274" lon="6.27481">
        <ele>167.8</ele>
        <time>2017-01-15T08:39:38Z</time>
      </trkpt>
      <trkpt lat="43.50268" lon="6.27471">
        <ele>167.9</ele>
        <time>2017-01-15T08:39:46Z</time>
      </trkpt>
      <trkpt lat="43.50262" lon="6.2746">
        <ele>168.1</ele>
        <time>2017-01-15T08:39:54Z</time>
      </trkpt>
      <trkpt lat="43.50257" lon="6.2745">
        <ele>168.2</ele>
        <time>2017-01-15T08:40:02Z</time>
      </trkpt>
      <trkpt lat="43.50251" lon="6.27438">
        <ele>168.4</ele>
        <time>2017-01-15T08:40:10Z</time>
      </trkpt>
      <trkpt lat="43.50246" lon="6.27428">
        <ele>168.5</ele>
        <time>2017-01-15T08:40:18Z</time>
      </trkpt>
      <trkpt lat="43.5024" lon="6.27417">
        <ele>168.7</ele>
        <time>2017-01-15T08:40:26Z</time>
      </trkpt>
      <trkpt lat="43.50233" lon="6.27408">
        <ele>168.8</ele>
        <time>2017-01-15T08:40:34Z</time>
      </trkpt>
      <trkpt lat="43.50224" lon="6.27404">
        <ele>169</ele>
        <time>2017-01-15T08:40:41Z</time>
      </trkpt>
      <trkpt lat="43.50214" lon="6.27408">
        <ele>169.3</ele>
        <time>2017-01-15T08:40:48Z</time>
      </trkpt>
      <trkpt lat="43.50205" lon="6.27409">
        <ele>169.7</ele>
        <time>2017-01-15T08:40:56Z</time>
      </trkpt>
      <trkpt lat="43.50201" lon="6.27397">
        <ele>170.1</ele>
        <time>2017-01-15T08:41:08Z</time>
      </trkpt>
      <trkpt lat="43.50201" lon="6.27383">
        <ele>170.8</ele>
        <time>2017-01-15T08:41:18Z</time>
      </trkpt>
      <trkpt lat="43.50195" lon="6.27373">
        <ele>171.5</ele>
        <time>2017-01-15T08:41:25Z</time>
      </trkpt>
      <trkpt lat="43.5019" lon="6.27362">
        <ele>172.2</ele>
        <time>2017-01-15T08:41:33Z</time>
      </trkpt>
      <trkpt lat="43.50184" lon="6.27352">
        <ele>173</ele>
        <time>2017-01-15T08:41:41Z</time>
      </trkpt>
      <trkpt lat="43.5018" lon="6.2734">
        <ele>173.5</ele>
        <time>2017-01-15T08:41:50Z</time>
      </trkpt>
      <trkpt lat="43.50174" lon="6.2733">
        <ele>173.8</ele>
        <time>2017-01-15T08:41:58Z</time>
      </trkpt>
      <trkpt lat="43.50168" lon="6.2732">
        <ele>174.2</ele>
        <time>2017-01-15T08:42:06Z</time>
      </trkpt>
      <trkpt lat="43.50163" lon="6.2731">
        <ele>174.9</ele>
        <time>2017-01-15T08:42:14Z</time>
      </trkpt>
      <trkpt lat="43.5016" lon="6.27298">
        <ele>175.4</ele>
        <time>2017-01-15T08:42:23Z</time>
      </trkpt>
      <trkpt lat="43.50155" lon="6.27288">
        <ele>175.7</ele>
        <time>2017-01-15T08:42:31Z</time>
      </trkpt>
      <trkpt lat="43.5015" lon="6.27277">
        <ele>176</ele>
        <time>2017-01-15T08:42:39Z</time>
      </trkpt>
      <trkpt lat="43.50148" lon="6.27263">
        <ele>176.1</ele>
        <time>2017-01-15T08:42:47Z</time>
      </trkpt>
      <trkpt lat="43.50149" lon="6.27251">
        <ele>176.1</ele>
        <time>2017-01-15T08:42:55Z</time>
      </trkpt>
      <trkpt lat="43.50147" lon="6.27238">
        <ele>176.2</ele>
        <time>2017-01-15T08:43:04Z</time>
      </trkpt>
      <trkpt lat="43.50147" lon="6.27225">
        <ele>176.4</ele>
        <time>2017-01-15T08:43:13Z</time>
      </trkpt>
      <trkpt lat="43.50146" lon="6.27213">
        <ele>176.6</ele>
        <time>2017-01-15T08:43:21Z</time>
      </trkpt>
      <trkpt lat="43.50147" lon="6.272">
        <ele>176.7</ele>
        <time>2017-01-15T08:43:29Z</time>
      </trkpt>
      <trkpt lat="43.50148" lon="6.27186">
        <ele>177</ele>
        <time>2017-01-15T08:43:37Z</time>
      </trkpt>
      <trkpt lat="43.50147" lon="6.27172">
        <ele>177.2</ele>
        <time>2017-01-15T08:43:44Z</time>
      </trkpt>
      <trkpt lat="43.50144" lon="6.27159">
        <ele>177.3</ele>
        <time>2017-01-15T08:43:52Z</time>
      </trkpt>
      <trkpt lat="43.50143" lon="6.27145">
        <ele>177.1</ele>
        <time>2017-01-15T08:44:00Z</time>
      </trkpt>
      <trkpt lat="43.50141" lon="6.27132">
        <ele>176.8</ele>
        <time>2017-01-15T08:44:06Z</time>
      </trkpt>
      <trkpt lat="43.50137" lon="6.27121">
        <ele>176.6</ele>
        <time>2017-01-15T08:44:14Z</time>
      </trkpt>
      <trkpt lat="43.50132" lon="6.27108">
        <ele>176.4</ele>
        <time>2017-01-15T08:44:21Z</time>
      </trkpt>
      <trkpt lat="43.50129" lon="6.27096">
        <ele>176.4</ele>
        <time>2017-01-15T08:44:30Z</time>
      </trkpt>
      <trkpt lat="43.50125" lon="6.27084">
        <ele>176.4</ele>
        <time>2017-01-15T08:44:38Z</time>
      </trkpt>
      <trkpt lat="43.50123" lon="6.27071">
        <ele>176.5</ele>
        <time>2017-01-15T08:44:45Z</time>
      </trkpt>
      <trkpt lat="43.5012" lon="6.27059">
        <ele>176.5</ele>
        <time>2017-01-15T08:44:53Z</time>
      </trkpt>
      <trkpt lat="43.50116" lon="6.27047">
        <ele>176.6</ele>
        <time>2017-01-15T08:45:00Z</time>
      </trkpt>
      <trkpt lat="43.50113" lon="6.27035">
        <ele>176.7</ele>
        <time>2017-01-15T08:45:09Z</time>
      </trkpt>
      <trkpt lat="43.50108" lon="6.27023">
        <ele>176.9</ele>
        <time>2017-01-15T08:45:17Z</time>
      </trkpt>
      <trkpt lat="43.50105" lon="6.27011">
        <ele>177.1</ele>
        <time>2017-01-15T08:45:24Z</time>
      </trkpt>
      <trkpt lat="43.501" lon="6.26998">
        <ele>177.3</ele>
        <time>2017-01-15T08:45:31Z</time>
      </trkpt>
      <trkpt lat="43.50096" lon="6.26986">
        <ele>177.3</ele>
        <time>2017-01-15T08:45:40Z</time>
      </trkpt>
      <trkpt lat="43.50092" lon="6.26974">
        <ele>177.4</ele>
        <time>2017-01-15T08:45:49Z</time>
      </trkpt>
      <trkpt lat="43.50088" lon="6.26962">
        <ele>177.6</ele>
        <time>2017-01-15T08:46:28Z</time>
      </trkpt>
      <trkpt lat="43.50095" lon="6.26954">
        <ele>178.4</ele>
        <time>2017-01-15T08:46:47Z</time>
      </trkpt>
      <trkpt lat="43.50097" lon="6.26942">
        <ele>179.3</ele>
        <time>2017-01-15T08:46:59Z</time>
      </trkpt>
      <trkpt lat="43.50098" lon="6.26929">
        <ele>180</ele>
        <time>2017-01-15T08:47:08Z</time>
      </trkpt>
      <trkpt lat="43.501" lon="6.26916">
        <ele>180.4</ele>
        <time>2017-01-15T08:47:16Z</time>
      </trkpt>
      <trkpt lat="43.50105" lon="6.26904">
        <ele>180.6</ele>
        <time>2017-01-15T08:47:24Z</time>
      </trkpt>
      <trkpt lat="43.50109" lon="6.26892">
        <ele>180.7</ele>
        <time>2017-01-15T08:47:32Z</time>
      </trkpt>
      <trkpt lat="43.50113" lon="6.26879">
        <ele>180.9</ele>
        <time>2017-01-15T08:47:40Z</time>
      </trkpt>
      <trkpt lat="43.50115" lon="6.26866">
        <ele>181.4</ele>
        <time>2017-01-15T08:47:48Z</time>
      </trkpt>
      <trkpt lat="43.50117" lon="6.26854">
        <ele>182.1</ele>
        <time>2017-01-15T08:47:57Z</time>
      </trkpt>
      <trkpt lat="43.50119" lon="6.26841">
        <ele>183.1</ele>
        <time>2017-01-15T08:48:07Z</time>
      </trkpt>
      <trkpt lat="43.50122" lon="6.26829">
        <ele>184.2</ele>
        <time>2017-01-15T08:48:19Z</time>
      </trkpt>
      <trkpt lat="43.50125" lon="6.26816">
        <ele>186</ele>
        <time>2017-01-15T08:48:33Z</time>
      </trkpt>
      <trkpt lat="43.50128" lon="6.26804">
        <ele>187.4</ele>
        <time>2017-01-15T08:48:42Z</time>
      </trkpt>
      <trkpt lat="43.50131" lon="6.26792">
        <ele>188.3</ele>
        <time>2017-01-15T08:48:49Z</time>
      </trkpt>
      <trkpt lat="43.50134" lon="6.2678">
        <ele>189.3</ele>
        <time>2017-01-15T08:48:57Z</time>
      </trkpt>
      <trkpt lat="43.50139" lon="6.26768">
        <ele>190.6</ele>
        <time>2017-01-15T08:49:07Z</time>
      </trkpt>
      <trkpt lat="43.50143" lon="6.26757">
        <ele>191.3</ele>
        <time>2017-01-15T08:49:14Z</time>
      </trkpt>
      <trkpt lat="43.50147" lon="6.26746">
        <ele>192.2</ele>
        <time>2017-01-15T08:49:23Z</time>
      </trkpt>
      <trkpt lat="43.50152" lon="6.26734">
        <ele>192.9</ele>
        <time>2017-01-15T08:49:32Z</time>
      </trkpt>
      <trkpt lat="43.50152" lon="6.26721">
        <ele>193.6</ele>
        <time>2017-01-15T08:49:41Z</time>
      </trkpt>
      <trkpt lat="43.50155" lon="6.26709">
        <ele>194</ele>
        <time>2017-01-15T08:49:49Z</time>
      </trkpt>
      <trkpt lat="43.50156" lon="6.26696">
        <ele>194.4</ele>
        <time>2017-01-15T08:49:57Z</time>
      </trkpt>
      <trkpt lat="43.50158" lon="6.26684">
        <ele>195.1</ele>
        <time>2017-01-15T08:50:06Z</time>
      </trkpt>
      <trkpt lat="43.50159" lon="6.26671">
        <ele>195.8</ele>
        <time>2017-01-15T08:50:15Z</time>
      </trkpt>
      <trkpt lat="43.50161" lon="6.26658">
        <ele>196.5</ele>
        <time>2017-01-15T08:50:24Z</time>
      </trkpt>
      <trkpt lat="43.50163" lon="6.26645">
        <ele>197.4</ele>
        <time>2017-01-15T08:50:34Z</time>
      </trkpt>
      <trkpt lat="43.50165" lon="6.26633">
        <ele>198.3</ele>
        <time>2017-01-15T08:50:43Z</time>
      </trkpt>
      <trkpt lat="43.50165" lon="6.2662">
        <ele>199.2</ele>
        <time>2017-01-15T08:50:51Z</time>
      </trkpt>
      <trkpt lat="43.50164" lon="6.26608">
        <ele>200</ele>
        <time>2017-01-15T08:51:00Z</time>
      </trkpt>
      <trkpt lat="43.50165" lon="6.26595">
        <ele>200.8</ele>
        <time>2017-01-15T08:51:08Z</time>
      </trkpt>
      <trkpt lat="43.50169" lon="6.26583">
        <ele>202</ele>
        <time>2017-01-15T08:51:22Z</time>
      </trkpt>
      <trkpt lat="43.50172" lon="6.2657">
        <ele>202.4</ele>
        <time>2017-01-15T08:51:30Z</time>
      </trkpt>
      <trkpt lat="43.50174" lon="6.26556">
        <ele>202.8</ele>
        <time>2017-01-15T08:51:39Z</time>
      </trkpt>
      <trkpt lat="43.50176" lon="6.26544">
        <ele>203.5</ele>
        <time>2017-01-15T08:51:47Z</time>
      </trkpt>
      <trkpt lat="43.50177" lon="6.2653">
        <ele>204.1</ele>
        <time>2017-01-15T08:51:56Z</time>
      </trkpt>
      <trkpt lat="43.50179" lon="6.26518">
        <ele>205.2</ele>
        <time>2017-01-15T08:52:06Z</time>
      </trkpt>
      <trkpt lat="43.50178" lon="6.26504">
        <ele>206.2</ele>
        <time>2017-01-15T08:52:16Z</time>
      </trkpt>
      <trkpt lat="43.50174" lon="6.26492">
        <ele>207.2</ele>
        <time>2017-01-15T08:52:24Z</time>
      </trkpt>
      <trkpt lat="43.50175" lon="6.26479">
        <ele>208.4</ele>
        <time>2017-01-15T08:52:34Z</time>
      </trkpt>
      <trkpt lat="43.50175" lon="6.26467">
        <ele>209.3</ele>
        <time>2017-01-15T08:52:42Z</time>
      </trkpt>
      <trkpt lat="43.50175" lon="6.26453">
        <ele>210.3</ele>
        <time>2017-01-15T08:52:52Z</time>
      </trkpt>
      <trkpt lat="43.50176" lon="6.26439">
        <ele>211.6</ele>
        <time>2017-01-15T08:53:05Z</time>
      </trkpt>
      <trkpt lat="43.50178" lon="6.26426">
        <ele>212.7</ele>
        <time>2017-01-15T08:53:14Z</time>
      </trkpt>
      <trkpt lat="43.50181" lon="6.26414">
        <ele>213.6</ele>
        <time>2017-01-15T08:53:23Z</time>
      </trkpt>
      <trkpt lat="43.50183" lon="6.26402">
        <ele>214.8</ele>
        <time>2017-01-15T08:53:35Z</time>
      </trkpt>
      <trkpt lat="43.50186" lon="6.26388">
        <ele>215.4</ele>
        <time>2017-01-15T08:53:42Z</time>
      </trkpt>
      <trkpt lat="43.50187" lon="6.26376">
        <ele>216.4</ele>
        <time>2017-01-15T08:53:53Z</time>
      </trkpt>
      <trkpt lat="43.50189" lon="6.26364">
        <ele>217.2</ele>
        <time>2017-01-15T08:54:01Z</time>
      </trkpt>
      <trkpt lat="43.5019" lon="6.2635">
        <ele>218.1</ele>
        <time>2017-01-15T08:54:10Z</time>
      </trkpt>
      <trkpt lat="43.50186" lon="6.26338">
        <ele>218.8</ele>
        <time>2017-01-15T08:54:18Z</time>
      </trkpt>
      <trkpt lat="43.50182" lon="6.26324">
        <ele>219.1</ele>
        <time>2017-01-15T08:54:26Z</time>
      </trkpt>
      <trkpt lat="43.50182" lon="6.26311">
        <ele>218.9</ele>
        <time>2017-01-15T08:54:34Z</time>
      </trkpt>
      <trkpt lat="43.50186" lon="6.26299">
        <ele>218.6</ele>
        <time>2017-01-15T08:54:42Z</time>
      </trkpt>
      <trkpt lat="43.5019" lon="6.26287">
        <ele>217.9</ele>
        <time>2017-01-15T08:54:52Z</time>
      </trkpt>
      <trkpt lat="43.50185" lon="6.26275">
        <ele>216.8</ele>
        <time>2017-01-15T08:57:26Z</time>
      </trkpt>
      <trkpt lat="43.50185" lon="6.26263">
        <ele>216.6</ele>
        <time>2017-01-15T08:57:36Z</time>
      </trkpt>
      <trkpt lat="43.50184" lon="6.2625">
        <ele>213.8</ele>
        <time>2017-01-15T08:58:59Z</time>
      </trkpt>
      <trkpt lat="43.50183" lon="6.26238">
        <ele>213.5</ele>
        <time>2017-01-15T08:59:13Z</time>
      </trkpt>
      <trkpt lat="43.50182" lon="6.26225">
        <ele>213.2</ele>
        <time>2017-01-15T08:59:24Z</time>
      </trkpt>
      <trkpt lat="43.50181" lon="6.26213">
        <ele>211.9</ele>
        <time>2017-01-15T08:59:36Z</time>
      </trkpt>
      <trkpt lat="43.50181" lon="6.262">
        <ele>210.1</ele>
        <time>2017-01-15T08:59:47Z</time>
      </trkpt>
      <trkpt lat="43.5018" lon="6.26188">
        <ele>208.6</ele>
        <time>2017-01-15T08:59:57Z</time>
      </trkpt>
      <trkpt lat="43.50179" lon="6.26175">
        <ele>207.1</ele>
        <time>2017-01-15T09:00:07Z</time>
      </trkpt>
      <trkpt lat="43.50179" lon="6.26162">
        <ele>205.3</ele>
        <time>2017-01-15T09:00:18Z</time>
      </trkpt>
      <trkpt lat="43.50178" lon="6.2615">
        <ele>203.9</ele>
        <time>2017-01-15T09:00:27Z</time>
      </trkpt>
      <trkpt lat="43.50177" lon="6.26137">
        <ele>202.3</ele>
        <time>2017-01-15T09:00:36Z</time>
      </trkpt>
      <trkpt lat="43.50178" lon="6.26124">
        <ele>200.7</ele>
        <time>2017-01-15T09:00:46Z</time>
      </trkpt>
      <trkpt lat="43.50179" lon="6.2611">
        <ele>199.1</ele>
        <time>2017-01-15T09:00:57Z</time>
      </trkpt>
      <trkpt lat="43.5018" lon="6.26097">
        <ele>197.7</ele>
        <time>2017-01-15T09:01:07Z</time>
      </trkpt>
      <trkpt lat="43.50182" lon="6.26085">
        <ele>196.9</ele>
        <time>2017-01-15T09:01:16Z</time>
      </trkpt>
      <trkpt lat="43.50182" lon="6.26072">
        <ele>195.5</ele>
        <time>2017-01-15T09:01:25Z</time>
      </trkpt>
      <trkpt lat="43.50184" lon="6.26059">
        <ele>194.4</ele>
        <time>2017-01-15T09:01:34Z</time>
      </trkpt>
      <trkpt lat="43.50184" lon="6.26046">
        <ele>193.4</ele>
        <time>2017-01-15T09:01:43Z</time>
      </trkpt>
      <trkpt lat="43.50185" lon="6.26033">
        <ele>192.7</ele>
        <time>2017-01-15T09:01:52Z</time>
      </trkpt>
      <trkpt lat="43.50186" lon="6.2602">
        <ele>192</ele>
        <time>2017-01-15T09:02:00Z</time>
      </trkpt>
      <trkpt lat="43.50186" lon="6.26007">
        <ele>191.6</ele>
        <time>2017-01-15T09:02:08Z</time>
      </trkpt>
      <trkpt lat="43.50186" lon="6.25994">
        <ele>191.4</ele>
        <time>2017-01-15T09:02:16Z</time>
      </trkpt>
      <trkpt lat="43.50189" lon="6.25981">
        <ele>191.2</ele>
        <time>2017-01-15T09:02:25Z</time>
      </trkpt>
      <trkpt lat="43.50193" lon="6.25968">
        <ele>190.9</ele>
        <time>2017-01-15T09:02:36Z</time>
      </trkpt>
      <trkpt lat="43.50194" lon="6.25955">
        <ele>190.6</ele>
        <time>2017-01-15T09:02:45Z</time>
      </trkpt>
      <trkpt lat="43.50196" lon="6.25942">
        <ele>190.2</ele>
        <time>2017-01-15T09:02:53Z</time>
      </trkpt>
      <trkpt lat="43.50198" lon="6.25928">
        <ele>189.8</ele>
        <time>2017-01-15T09:03:01Z</time>
      </trkpt>
      <trkpt lat="43.502" lon="6.25916">
        <ele>189</ele>
        <time>2017-01-15T09:03:09Z</time>
      </trkpt>
      <trkpt lat="43.50203" lon="6.25902">
        <ele>188</ele>
        <time>2017-01-15T09:03:17Z</time>
      </trkpt>
      <trkpt lat="43.50207" lon="6.25891">
        <ele>187</ele>
        <time>2017-01-15T09:03:25Z</time>
      </trkpt>
      <trkpt lat="43.50214" lon="6.25881">
        <ele>186.1</ele>
        <time>2017-01-15T09:03:33Z</time>
      </trkpt>
      <trkpt lat="43.50222" lon="6.25875">
        <ele>185</ele>
        <time>2017-01-15T09:03:44Z</time>
      </trkpt>
      <trkpt lat="43.50226" lon="6.25863">
        <ele>184.5</ele>
        <time>2017-01-15T09:03:51Z</time>
      </trkpt>
      <trkpt lat="43.50229" lon="6.2585">
        <ele>183.9</ele>
        <time>2017-01-15T09:03:59Z</time>
      </trkpt>
      <trkpt lat="43.50234" lon="6.25839">
        <ele>183.5</ele>
        <time>2017-01-15T09:04:06Z</time>
      </trkpt>
      <trkpt lat="43.50238" lon="6.25826">
        <ele>182.7</ele>
        <time>2017-01-15T09:04:14Z</time>
      </trkpt>
      <trkpt lat="43.50239" lon="6.25812">
        <ele>181.6</ele>
        <time>2017-01-15T09:04:23Z</time>
      </trkpt>
      <trkpt lat="43.50242" lon="6.25798">
        <ele>180.7</ele>
        <time>2017-01-15T09:04:32Z</time>
      </trkpt>
      <trkpt lat="43.50247" lon="6.25787">
        <ele>179.9</ele>
        <time>2017-01-15T09:04:39Z</time>
      </trkpt>
      <trkpt lat="43.50252" lon="6.25777">
        <ele>178.9</ele>
        <time>2017-01-15T09:04:46Z</time>
      </trkpt>
      <trkpt lat="43.50255" lon="6.25765">
        <ele>177.4</ele>
        <time>2017-01-15T09:04:56Z</time>
      </trkpt>
      <trkpt lat="43.50256" lon="6.25751">
        <ele>176.6</ele>
        <time>2017-01-15T09:05:05Z</time>
      </trkpt>
      <trkpt lat="43.50261" lon="6.2574">
        <ele>176.4</ele>
        <time>2017-01-15T09:05:12Z</time>
      </trkpt>
      <trkpt lat="43.50268" lon="6.25728">
        <ele>176.5</ele>
        <time>2017-01-15T09:05:22Z</time>
      </trkpt>
      <trkpt lat="43.50274" lon="6.25716">
        <ele>176.8</ele>
        <time>2017-01-15T09:05:28Z</time>
      </trkpt>
      <trkpt lat="43.50277" lon="6.25704">
        <ele>177.1</ele>
        <time>2017-01-15T09:05:37Z</time>
      </trkpt>
      <trkpt lat="43.50282" lon="6.25694">
        <ele>177.5</ele>
        <time>2017-01-15T09:05:45Z</time>
      </trkpt>
      <trkpt lat="43.50285" lon="6.25681">
        <ele>178.1</ele>
        <time>2017-01-15T09:05:54Z</time>
      </trkpt>
      <trkpt lat="43.50287" lon="6.25669">
        <ele>178.4</ele>
        <time>2017-01-15T09:06:02Z</time>
      </trkpt>
      <trkpt lat="43.5029" lon="6.25655">
        <ele>178.7</ele>
        <time>2017-01-15T09:06:11Z</time>
      </trkpt>
      <trkpt lat="43.50293" lon="6.25643">
        <ele>178.8</ele>
        <time>2017-01-15T09:06:19Z</time>
      </trkpt>
      <trkpt lat="43.50294" lon="6.25629">
        <ele>179.1</ele>
        <time>2017-01-15T09:06:29Z</time>
      </trkpt>
      <trkpt lat="43.50298" lon="6.25618">
        <ele>179.6</ele>
        <time>2017-01-15T09:06:37Z</time>
      </trkpt>
      <trkpt lat="43.503" lon="6.25604">
        <ele>180.9</ele>
        <time>2017-01-15T09:06:49Z</time>
      </trkpt>
      <trkpt lat="43.50308" lon="6.25597">
        <ele>181.9</ele>
        <time>2017-01-15T09:06:57Z</time>
      </trkpt>
      <trkpt lat="43.50315" lon="6.25589">
        <ele>183.3</ele>
        <time>2017-01-15T09:07:06Z</time>
      </trkpt>
      <trkpt lat="43.50322" lon="6.2558">
        <ele>185.2</ele>
        <time>2017-01-15T09:07:22Z</time>
      </trkpt>
      <trkpt lat="43.5033" lon="6.25574">
        <ele>186.3</ele>
        <time>2017-01-15T09:07:32Z</time>
      </trkpt>
      <trkpt lat="43.50338" lon="6.25567">
        <ele>188</ele>
        <time>2017-01-15T09:07:46Z</time>
      </trkpt>
      <trkpt lat="43.50347" lon="6.25564">
        <ele>188.6</ele>
        <time>2017-01-15T09:07:52Z</time>
      </trkpt>
      <trkpt lat="43.50356" lon="6.25564">
        <ele>189.1</ele>
        <time>2017-01-15T09:07:57Z</time>
      </trkpt>
      <trkpt lat="43.50361" lon="6.25553">
        <ele>190</ele>
        <time>2017-01-15T09:08:06Z</time>
      </trkpt>
      <trkpt lat="43.50369" lon="6.25543">
        <ele>191</ele>
        <time>2017-01-15T09:08:14Z</time>
      </trkpt>
      <trkpt lat="43.50377" lon="6.25537">
        <ele>191.8</ele>
        <time>2017-01-15T09:08:20Z</time>
      </trkpt>
      <trkpt lat="43.50385" lon="6.25529">
        <ele>192.4</ele>
        <time>2017-01-15T09:08:25Z</time>
      </trkpt>
      <trkpt lat="43.50391" lon="6.25518">
        <ele>193.2</ele>
        <time>2017-01-15T09:08:32Z</time>
      </trkpt>
      <trkpt lat="43.50394" lon="6.25506">
        <ele>194.1</ele>
        <time>2017-01-15T09:08:42Z</time>
      </trkpt>
      <trkpt lat="43.50398" lon="6.25494">
        <ele>194.9</ele>
        <time>2017-01-15T09:08:50Z</time>
      </trkpt>
      <trkpt lat="43.504" lon="6.2548">
        <ele>195.5</ele>
        <time>2017-01-15T09:08:57Z</time>
      </trkpt>
      <trkpt lat="43.50404" lon="6.25468">
        <ele>196.5</ele>
        <time>2017-01-15T09:09:04Z</time>
      </trkpt>
      <trkpt lat="43.50404" lon="6.25454">
        <ele>197.5</ele>
        <time>2017-01-15T09:09:13Z</time>
      </trkpt>
      <trkpt lat="43.50408" lon="6.25442">
        <ele>198.1</ele>
        <time>2017-01-15T09:09:21Z</time>
      </trkpt>
      <trkpt lat="43.50413" lon="6.2543">
        <ele>198.7</ele>
        <time>2017-01-15T09:09:31Z</time>
      </trkpt>
      <trkpt lat="43.50413" lon="6.25417">
        <ele>199.2</ele>
        <time>2017-01-15T09:09:41Z</time>
      </trkpt>
      <trkpt lat="43.50416" lon="6.25405">
        <ele>199.6</ele>
        <time>2017-01-15T09:09:48Z</time>
      </trkpt>
      <trkpt lat="43.5042" lon="6.25394">
        <ele>200</ele>
        <time>2017-01-15T09:09:55Z</time>
      </trkpt>
      <trkpt lat="43.50421" lon="6.2538">
        <ele>200.6</ele>
        <time>2017-01-15T09:10:03Z</time>
      </trkpt>
      <trkpt lat="43.50421" lon="6.25368">
        <ele>201</ele>
        <time>2017-01-15T09:10:11Z</time>
      </trkpt>
      <trkpt lat="43.50424" lon="6.25356">
        <ele>201.2</ele>
        <time>2017-01-15T09:10:18Z</time>
      </trkpt>
      <trkpt lat="43.50428" lon="6.25343">
        <ele>201.1</ele>
        <time>2017-01-15T09:10:26Z</time>
      </trkpt>
      <trkpt lat="43.50432" lon="6.2533">
        <ele>201</ele>
        <time>2017-01-15T09:10:34Z</time>
      </trkpt>
      <trkpt lat="43.50437" lon="6.25318">
        <ele>200.9</ele>
        <time>2017-01-15T09:10:43Z</time>
      </trkpt>
      <trkpt lat="43.50441" lon="6.25306">
        <ele>200.9</ele>
        <time>2017-01-15T09:10:51Z</time>
      </trkpt>
      <trkpt lat="43.50443" lon="6.25293">
        <ele>200.8</ele>
        <time>2017-01-15T09:10:59Z</time>
      </trkpt>
      <trkpt lat="43.50446" lon="6.2528">
        <ele>200.8</ele>
        <time>2017-01-15T09:11:07Z</time>
      </trkpt>
      <trkpt lat="43.5045" lon="6.25267">
        <ele>200.9</ele>
        <time>2017-01-15T09:11:15Z</time>
      </trkpt>
      <trkpt lat="43.50453" lon="6.25255">
        <ele>201.1</ele>
        <time>2017-01-15T09:11:23Z</time>
      </trkpt>
      <trkpt lat="43.50455" lon="6.25242">
        <ele>201.7</ele>
        <time>2017-01-15T09:11:32Z</time>
      </trkpt>
      <trkpt lat="43.50459" lon="6.2523">
        <ele>202.1</ele>
        <time>2017-01-15T09:11:40Z</time>
      </trkpt>
      <trkpt lat="43.50465" lon="6.2522">
        <ele>202.5</ele>
        <time>2017-01-15T09:11:47Z</time>
      </trkpt>
      <trkpt lat="43.50468" lon="6.25208">
        <ele>202.9</ele>
        <time>2017-01-15T09:11:54Z</time>
      </trkpt>
      <trkpt lat="43.50472" lon="6.25197">
        <ele>203.4</ele>
        <time>2017-01-15T09:12:03Z</time>
      </trkpt>
      <trkpt lat="43.50478" lon="6.25186">
        <ele>203.8</ele>
        <time>2017-01-15T09:12:16Z</time>
      </trkpt>
      <trkpt lat="43.50485" lon="6.25179">
        <ele>203.9</ele>
        <time>2017-01-15T09:12:23Z</time>
      </trkpt>
      <trkpt lat="43.50491" lon="6.2517">
        <ele>204</ele>
        <time>2017-01-15T09:12:29Z</time>
      </trkpt>
      <trkpt lat="43.50498" lon="6.25161">
        <ele>204</ele>
        <time>2017-01-15T09:12:38Z</time>
      </trkpt>
      <trkpt lat="43.50505" lon="6.25151">
        <ele>204</ele>
        <time>2017-01-15T09:12:47Z</time>
      </trkpt>
      <trkpt lat="43.50511" lon="6.25141">
        <ele>204</ele>
        <time>2017-01-15T09:12:55Z</time>
      </trkpt>
      <trkpt lat="43.50516" lon="6.25129">
        <ele>204</ele>
        <time>2017-01-15T09:13:04Z</time>
      </trkpt>
      <trkpt lat="43.5052" lon="6.25116">
        <ele>204.2</ele>
        <time>2017-01-15T09:13:12Z</time>
      </trkpt>
      <trkpt lat="43.50523" lon="6.25104">
        <ele>204.5</ele>
        <time>2017-01-15T09:13:19Z</time>
      </trkpt>
      <trkpt lat="43.50529" lon="6.25094">
        <ele>205</ele>
        <time>2017-01-15T09:13:27Z</time>
      </trkpt>
      <trkpt lat="43.50534" lon="6.25083">
        <ele>205.9</ele>
        <time>2017-01-15T09:13:40Z</time>
      </trkpt>
      <trkpt lat="43.50542" lon="6.25077">
        <ele>206.5</ele>
        <time>2017-01-15T09:13:49Z</time>
      </trkpt>
      <trkpt lat="43.50551" lon="6.25074">
        <ele>206.9</ele>
        <time>2017-01-15T09:13:56Z</time>
      </trkpt>
      <trkpt lat="43.50561" lon="6.25072">
        <ele>207.3</ele>
        <time>2017-01-15T09:14:05Z</time>
      </trkpt>
      <trkpt lat="43.50569" lon="6.25069">
        <ele>207.9</ele>
        <time>2017-01-15T09:14:15Z</time>
      </trkpt>
      <trkpt lat="43.50576" lon="6.25059">
        <ele>208.2</ele>
        <time>2017-01-15T09:14:24Z</time>
      </trkpt>
      <trkpt lat="43.50583" lon="6.2505">
        <ele>208.5</ele>
        <time>2017-01-15T09:14:32Z</time>
      </trkpt>
      <trkpt lat="43.50589" lon="6.2504">
        <ele>208.7</ele>
        <time>2017-01-15T09:14:40Z</time>
      </trkpt>
      <trkpt lat="43.50597" lon="6.25031">
        <ele>208.9</ele>
        <time>2017-01-15T09:14:47Z</time>
      </trkpt>
      <trkpt lat="43.50603" lon="6.25021">
        <ele>208.9</ele>
        <time>2017-01-15T09:14:56Z</time>
      </trkpt>
      <trkpt lat="43.5061" lon="6.25013">
        <ele>208.7</ele>
        <time>2017-01-15T09:15:05Z</time>
      </trkpt>
      <trkpt lat="43.50617" lon="6.25004">
        <ele>208.4</ele>
        <time>2017-01-15T09:15:13Z</time>
      </trkpt>
      <trkpt lat="43.50623" lon="6.24994">
        <ele>207.9</ele>
        <time>2017-01-15T09:15:21Z</time>
      </trkpt>
      <trkpt lat="43.50628" lon="6.24983">
        <ele>206.9</ele>
        <time>2017-01-15T09:15:30Z</time>
      </trkpt>
      <trkpt lat="43.50633" lon="6.24971">
        <ele>206.2</ele>
        <time>2017-01-15T09:15:39Z</time>
      </trkpt>
      <trkpt lat="43.50638" lon="6.2496">
        <ele>205.4</ele>
        <time>2017-01-15T09:15:47Z</time>
      </trkpt>
      <trkpt lat="43.50644" lon="6.24951">
        <ele>204.7</ele>
        <time>2017-01-15T09:15:54Z</time>
      </trkpt>
      <trkpt lat="43.50651" lon="6.24943">
        <ele>203.5</ele>
        <time>2017-01-15T09:16:02Z</time>
      </trkpt>
      <trkpt lat="43.50657" lon="6.24932">
        <ele>202.5</ele>
        <time>2017-01-15T09:16:10Z</time>
      </trkpt>
      <trkpt lat="43.50663" lon="6.24922">
        <ele>201.9</ele>
        <time>2017-01-15T09:16:18Z</time>
      </trkpt>
      <trkpt lat="43.50667" lon="6.2491">
        <ele>200.9</ele>
        <time>2017-01-15T09:16:28Z</time>
      </trkpt>
      <trkpt lat="43.50672" lon="6.24899">
        <ele>200.1</ele>
        <time>2017-01-15T09:16:35Z</time>
      </trkpt>
      <trkpt lat="43.50678" lon="6.24888">
        <ele>199</ele>
        <time>2017-01-15T09:16:44Z</time>
      </trkpt>
      <trkpt lat="43.50684" lon="6.24878">
        <ele>198.2</ele>
        <time>2017-01-15T09:16:52Z</time>
      </trkpt>
      <trkpt lat="43.50691" lon="6.24867">
        <ele>197.3</ele>
        <time>2017-01-15T09:17:01Z</time>
      </trkpt>
      <trkpt lat="43.50696" lon="6.24856">
        <ele>196.3</ele>
        <time>2017-01-15T09:17:16Z</time>
      </trkpt>
      <trkpt lat="43.50701" lon="6.24845">
        <ele>196</ele>
        <time>2017-01-15T09:17:25Z</time>
      </trkpt>
      <trkpt lat="43.50704" lon="6.24833">
        <ele>194.5</ele>
        <time>2017-01-15T09:18:54Z</time>
      </trkpt>
      <trkpt lat="43.50709" lon="6.24821">
        <ele>194.3</ele>
        <time>2017-01-15T09:19:04Z</time>
      </trkpt>
      <trkpt lat="43.50715" lon="6.24811">
        <ele>193.9</ele>
        <time>2017-01-15T09:19:12Z</time>
      </trkpt>
      <trkpt lat="43.5072" lon="6.24799">
        <ele>193.3</ele>
        <time>2017-01-15T09:19:21Z</time>
      </trkpt>
      <trkpt lat="43.50725" lon="6.24787">
        <ele>192.4</ele>
        <time>2017-01-15T09:19:31Z</time>
      </trkpt>
      <trkpt lat="43.50732" lon="6.24779">
        <ele>190.1</ele>
        <time>2017-01-15T09:20:47Z</time>
      </trkpt>
      <trkpt lat="43.50736" lon="6.24767">
        <ele>188.7</ele>
        <time>2017-01-15T09:21:05Z</time>
      </trkpt>
      <trkpt lat="43.50743" lon="6.24757">
        <ele>187.3</ele>
        <time>2017-01-15T09:21:19Z</time>
      </trkpt>
      <trkpt lat="43.50748" lon="6.24747">
        <ele>185.4</ele>
        <time>2017-01-15T09:21:33Z</time>
      </trkpt>
      <trkpt lat="43.50752" lon="6.24736">
        <ele>184</ele>
        <time>2017-01-15T09:21:45Z</time>
      </trkpt>
      <trkpt lat="43.50757" lon="6.24724">
        <ele>182</ele>
        <time>2017-01-15T09:21:56Z</time>
      </trkpt>
      <trkpt lat="43.50759" lon="6.24711">
        <ele>180.1</ele>
        <time>2017-01-15T09:22:08Z</time>
      </trkpt>
      <trkpt lat="43.50763" lon="6.24699">
        <ele>178.9</ele>
        <time>2017-01-15T09:22:17Z</time>
      </trkpt>
      <trkpt lat="43.50762" lon="6.24686">
        <ele>177.4</ele>
        <time>2017-01-15T09:22:28Z</time>
      </trkpt>
      <trkpt lat="43.50763" lon="6.24673">
        <ele>175.9</ele>
        <time>2017-01-15T09:22:40Z</time>
      </trkpt>
      <trkpt lat="43.50765" lon="6.2466">
        <ele>174.6</ele>
        <time>2017-01-15T09:22:50Z</time>
      </trkpt>
      <trkpt lat="43.50765" lon="6.24647">
        <ele>173.8</ele>
        <time>2017-01-15T09:22:58Z</time>
      </trkpt>
      <trkpt lat="43.50769" lon="6.24635">
        <ele>173.1</ele>
        <time>2017-01-15T09:23:07Z</time>
      </trkpt>
      <trkpt lat="43.50773" lon="6.24623">
        <ele>172.2</ele>
        <time>2017-01-15T09:23:16Z</time>
      </trkpt>
      <trkpt lat="43.50779" lon="6.24612">
        <ele>171.4</ele>
        <time>2017-01-15T09:23:23Z</time>
      </trkpt>
      <trkpt lat="43.50782" lon="6.246">
        <ele>170.1</ele>
        <time>2017-01-15T09:23:33Z</time>
      </trkpt>
      <trkpt lat="43.50787" lon="6.24589">
        <ele>169.2</ele>
        <time>2017-01-15T09:23:42Z</time>
      </trkpt>
      <trkpt lat="43.50791" lon="6.24577">
        <ele>167.9</ele>
        <time>2017-01-15T09:23:51Z</time>
      </trkpt>
      <trkpt lat="43.50797" lon="6.24566">
        <ele>166.5</ele>
        <time>2017-01-15T09:23:59Z</time>
      </trkpt>
      <trkpt lat="43.50802" lon="6.24555">
        <ele>165.3</ele>
        <time>2017-01-15T09:24:08Z</time>
      </trkpt>
      <trkpt lat="43.50807" lon="6.24544">
        <ele>164.1</ele>
        <time>2017-01-15T09:24:16Z</time>
      </trkpt>
      <trkpt lat="43.50812" lon="6.24533">
        <ele>162.2</ele>
        <time>2017-01-15T09:24:26Z</time>
      </trkpt>
      <trkpt lat="43.50818" lon="6.24522">
        <ele>161</ele>
        <time>2017-01-15T09:24:34Z</time>
      </trkpt>
      <trkpt lat="43.50824" lon="6.24511">
        <ele>159.8</ele>
        <time>2017-01-15T09:24:41Z</time>
      </trkpt>
      <trkpt lat="43.5083" lon="6.24499">
        <ele>159.1</ele>
        <time>2017-01-15T09:24:46Z</time>
      </trkpt>
      <trkpt lat="43.50835" lon="6.24489">
        <ele>157.9</ele>
        <time>2017-01-15T09:24:52Z</time>
      </trkpt>
      <trkpt lat="43.50837" lon="6.24476">
        <ele>156.7</ele>
        <time>2017-01-15T09:24:59Z</time>
      </trkpt>
      <trkpt lat="43.50838" lon="6.24463">
        <ele>155</ele>
        <time>2017-01-15T09:25:08Z</time>
      </trkpt>
      <trkpt lat="43.50845" lon="6.24454">
        <ele>152.9</ele>
        <time>2017-01-15T09:25:20Z</time>
      </trkpt>
      <trkpt lat="43.50854" lon="6.24448">
        <ele>151</ele>
        <time>2017-01-15T09:25:29Z</time>
      </trkpt>
      <trkpt lat="43.50862" lon="6.24439">
        <ele>149.8</ele>
        <time>2017-01-15T09:25:37Z</time>
      </trkpt>
      <trkpt lat="43.50869" lon="6.2443">
        <ele>148.5</ele>
        <time>2017-01-15T09:25:45Z</time>
      </trkpt>
      <trkpt lat="43.50875" lon="6.2442">
        <ele>147.4</ele>
        <time>2017-01-15T09:25:54Z</time>
      </trkpt>
      <trkpt lat="43.50882" lon="6.2441">
        <ele>146.4</ele>
        <time>2017-01-15T09:26:03Z</time>
      </trkpt>
      <trkpt lat="43.50889" lon="6.24401">
        <ele>145.5</ele>
        <time>2017-01-15T09:26:12Z</time>
      </trkpt>
      <trkpt lat="43.50896" lon="6.24392">
        <ele>144.7</ele>
        <time>2017-01-15T09:26:20Z</time>
      </trkpt>
      <trkpt lat="43.509" lon="6.24381">
        <ele>142.5</ele>
        <time>2017-01-15T09:27:03Z</time>
      </trkpt>
      <trkpt lat="43.50906" lon="6.24372">
        <ele>142.3</ele>
        <time>2017-01-15T09:27:14Z</time>
      </trkpt>
      <trkpt lat="43.50916" lon="6.24368">
        <ele>141.7</ele>
        <time>2017-01-15T09:27:22Z</time>
      </trkpt>
      <trkpt lat="43.50924" lon="6.24362">
        <ele>141.4</ele>
        <time>2017-01-15T09:27:30Z</time>
      </trkpt>
      <trkpt lat="43.50933" lon="6.24353">
        <ele>141.3</ele>
        <time>2017-01-15T09:27:37Z</time>
      </trkpt>
      <trkpt lat="43.50939" lon="6.24343">
        <ele>141.4</ele>
        <time>2017-01-15T09:27:46Z</time>
      </trkpt>
      <trkpt lat="43.50946" lon="6.24332">
        <ele>141.6</ele>
        <time>2017-01-15T09:27:53Z</time>
      </trkpt>
      <trkpt lat="43.50953" lon="6.24324">
        <ele>142</ele>
        <time>2017-01-15T09:28:02Z</time>
      </trkpt>
      <trkpt lat="43.5096" lon="6.24315">
        <ele>142.4</ele>
        <time>2017-01-15T09:28:11Z</time>
      </trkpt>
      <trkpt lat="43.50969" lon="6.2431">
        <ele>142.4</ele>
        <time>2017-01-15T09:28:20Z</time>
      </trkpt>
      <trkpt lat="43.50977" lon="6.24303">
        <ele>142.4</ele>
        <time>2017-01-15T09:28:29Z</time>
      </trkpt>
      <trkpt lat="43.50986" lon="6.24299">
        <ele>142.3</ele>
        <time>2017-01-15T09:28:36Z</time>
      </trkpt>
      <trkpt lat="43.50996" lon="6.24292">
        <ele>142.3</ele>
        <time>2017-01-15T09:28:43Z</time>
      </trkpt>
      <trkpt lat="43.51003" lon="6.24285">
        <ele>142.2</ele>
        <time>2017-01-15T09:28:52Z</time>
      </trkpt>
      <trkpt lat="43.51011" lon="6.24278">
        <ele>142.1</ele>
        <time>2017-01-15T09:28:59Z</time>
      </trkpt>
      <trkpt lat="43.5102" lon="6.24272">
        <ele>141.5</ele>
        <time>2017-01-15T09:29:08Z</time>
      </trkpt>
      <trkpt lat="43.5103" lon="6.24267">
        <ele>140.8</ele>
        <time>2017-01-15T09:29:17Z</time>
      </trkpt>
      <trkpt lat="43.51039" lon="6.24266">
        <ele>140.2</ele>
        <time>2017-01-15T09:29:26Z</time>
      </trkpt>
      <trkpt lat="43.51047" lon="6.24261">
        <ele>139.9</ele>
        <time>2017-01-15T09:29:37Z</time>
      </trkpt>
      <trkpt lat="43.51056" lon="6.24258">
        <ele>139.7</ele>
        <time>2017-01-15T09:29:47Z</time>
      </trkpt>
      <trkpt lat="43.51066" lon="6.24254">
        <ele>139.8</ele>
        <time>2017-01-15T09:29:58Z</time>
      </trkpt>
      <trkpt lat="43.51072" lon="6.24245">
        <ele>139.9</ele>
        <time>2017-01-15T09:30:10Z</time>
      </trkpt>
      <trkpt lat="43.5108" lon="6.24238">
        <ele>140.5</ele>
        <time>2017-01-15T09:30:30Z</time>
      </trkpt>
      <trkpt lat="43.5107" lon="6.24238">
        <ele>140.7</ele>
        <time>2017-01-15T09:33:01Z</time>
      </trkpt>
      <trkpt lat="43.5108" lon="6.24236">
        <ele>140.7</ele>
        <time>2017-01-15T09:33:30Z</time>
      </trkpt>
      <trkpt lat="43.51084" lon="6.24225">
        <ele>140.4</ele>
        <time>2017-01-15T09:36:12Z</time>
      </trkpt>
      <trkpt lat="43.51093" lon="6.24222">
        <ele>138.9</ele>
        <time>2017-01-15T09:40:21Z</time>
      </trkpt>
      <trkpt lat="43.51102" lon="6.24218">
        <ele>137.8</ele>
        <time>2017-01-15T09:40:35Z</time>
      </trkpt>
      <trkpt lat="43.51104" lon="6.24206">
        <ele>137.3</ele>
        <time>2017-01-15T09:40:48Z</time>
      </trkpt>
      <trkpt lat="43.51113" lon="6.24204">
        <ele>136.5</ele>
        <time>2017-01-15T09:41:22Z</time>
      </trkpt>
      <trkpt lat="43.51121" lon="6.24199">
        <ele>135.6</ele>
        <time>2017-01-15T09:41:43Z</time>
      </trkpt>
      <trkpt lat="43.5113" lon="6.24195">
        <ele>135</ele>
        <time>2017-01-15T09:41:57Z</time>
      </trkpt>
      <trkpt lat="43.51138" lon="6.2419">
        <ele>134.8</ele>
        <time>2017-01-15T09:42:05Z</time>
      </trkpt>
      <trkpt lat="43.51148" lon="6.2419">
        <ele>134.7</ele>
        <time>2017-01-15T09:42:13Z</time>
      </trkpt>
      <trkpt lat="43.51159" lon="6.24192">
        <ele>135</ele>
        <time>2017-01-15T09:42:22Z</time>
      </trkpt>
      <trkpt lat="43.51169" lon="6.24196">
        <ele>135.3</ele>
        <time>2017-01-15T09:42:30Z</time>
      </trkpt>
      <trkpt lat="43.51178" lon="6.24197">
        <ele>135.5</ele>
        <time>2017-01-15T09:42:36Z</time>
      </trkpt>
      <trkpt lat="43.51187" lon="6.24201">
        <ele>135.6</ele>
        <time>2017-01-15T09:42:45Z</time>
      </trkpt>
      <trkpt lat="43.51197" lon="6.24199">
        <ele>135.6</ele>
        <time>2017-01-15T09:42:51Z</time>
      </trkpt>
      <trkpt lat="43.51206" lon="6.24202">
        <ele>135.2</ele>
        <time>2017-01-15T09:42:59Z</time>
      </trkpt>
      <trkpt lat="43.51216" lon="6.24209">
        <ele>134.7</ele>
        <time>2017-01-15T09:43:11Z</time>
      </trkpt>
      <trkpt lat="43.51225" lon="6.24214">
        <ele>134.7</ele>
        <time>2017-01-15T09:43:17Z</time>
      </trkpt>
      <trkpt lat="43.51233" lon="6.2422">
        <ele>134.7</ele>
        <time>2017-01-15T09:43:26Z</time>
      </trkpt>
      <trkpt lat="43.51241" lon="6.24225">
        <ele>134.7</ele>
        <time>2017-01-15T09:43:33Z</time>
      </trkpt>
      <trkpt lat="43.5125" lon="6.2423">
        <ele>134.6</ele>
        <time>2017-01-15T09:43:41Z</time>
      </trkpt>
      <trkpt lat="43.5126" lon="6.24231">
        <ele>134.5</ele>
        <time>2017-01-15T09:43:50Z</time>
      </trkpt>
      <trkpt lat="43.51269" lon="6.24232">
        <ele>134.4</ele>
        <time>2017-01-15T09:43:57Z</time>
      </trkpt>
      <trkpt lat="43.51277" lon="6.24237">
        <ele>134.5</ele>
        <time>2017-01-15T09:44:06Z</time>
      </trkpt>
      <trkpt lat="43.51281" lon="6.24249">
        <ele>134.5</ele>
        <time>2017-01-15T09:44:22Z</time>
      </trkpt>
      <trkpt lat="43.5129" lon="6.24246">
        <ele>134.5</ele>
        <time>2017-01-15T09:44:39Z</time>
      </trkpt>
      <trkpt lat="43.51299" lon="6.24243">
        <ele>134.5</ele>
        <time>2017-01-15T09:44:49Z</time>
      </trkpt>
      <trkpt lat="43.51307" lon="6.24249">
        <ele>134.3</ele>
        <time>2017-01-15T09:45:03Z</time>
      </trkpt>
      <trkpt lat="43.51315" lon="6.24255">
        <ele>134.2</ele>
        <time>2017-01-15T09:45:14Z</time>
      </trkpt>
      <trkpt lat="43.51321" lon="6.24265">
        <ele>134.2</ele>
        <time>2017-01-15T09:45:29Z</time>
      </trkpt>
      <trkpt lat="43.51327" lon="6.24274">
        <ele>134.2</ele>
        <time>2017-01-15T09:45:40Z</time>
      </trkpt>
      <trkpt lat="43.51333" lon="6.24284">
        <ele>134.3</ele>
        <time>2017-01-15T09:45:59Z</time>
      </trkpt>
      <trkpt lat="43.51342" lon="6.24281">
        <ele>134.3</ele>
        <time>2017-01-15T09:46:18Z</time>
      </trkpt>
      <trkpt lat="43.51349" lon="6.2429">
        <ele>134</ele>
        <time>2017-01-15T09:46:49Z</time>
      </trkpt>
      <trkpt lat="43.51346" lon="6.24301">
        <ele>134.1</ele>
        <time>2017-01-15T09:47:01Z</time>
      </trkpt>
      <trkpt lat="43.51351" lon="6.24312">
        <ele>134.3</ele>
        <time>2017-01-15T09:47:13Z</time>
      </trkpt>
      <trkpt lat="43.51361" lon="6.24318">
        <ele>134.7</ele>
        <time>2017-01-15T09:47:25Z</time>
      </trkpt>
      <trkpt lat="43.51364" lon="6.24329">
        <ele>135</ele>
        <time>2017-01-15T09:47:37Z</time>
      </trkpt>
      <trkpt lat="43.51363" lon="6.24343">
        <ele>135.3</ele>
        <time>2017-01-15T09:47:48Z</time>
      </trkpt>
      <trkpt lat="43.51368" lon="6.24353">
        <ele>135.5</ele>
        <time>2017-01-15T09:47:55Z</time>
      </trkpt>
      <trkpt lat="43.51375" lon="6.24363">
        <ele>135.6</ele>
        <time>2017-01-15T09:48:01Z</time>
      </trkpt>
      <trkpt lat="43.51379" lon="6.24375">
        <ele>135.7</ele>
        <time>2017-01-15T09:48:09Z</time>
      </trkpt>
      <trkpt lat="43.51387" lon="6.24381">
        <ele>135.7</ele>
        <time>2017-01-15T09:48:18Z</time>
      </trkpt>
      <trkpt lat="43.51395" lon="6.24388">
        <ele>135.6</ele>
        <time>2017-01-15T09:48:25Z</time>
      </trkpt>
      <trkpt lat="43.51403" lon="6.24397">
        <ele>135.5</ele>
        <time>2017-01-15T09:48:34Z</time>
      </trkpt>
      <trkpt lat="43.51411" lon="6.24402">
        <ele>135.5</ele>
        <time>2017-01-15T09:48:41Z</time>
      </trkpt>
      <trkpt lat="43.51419" lon="6.24408">
        <ele>135.5</ele>
        <time>2017-01-15T09:48:47Z</time>
      </trkpt>
      <trkpt lat="43.51427" lon="6.24417">
        <ele>135.5</ele>
        <time>2017-01-15T09:48:59Z</time>
      </trkpt>
      <trkpt lat="43.51435" lon="6.24425">
        <ele>135.5</ele>
        <time>2017-01-15T09:49:07Z</time>
      </trkpt>
      <trkpt lat="43.51439" lon="6.24436">
        <ele>135.9</ele>
        <time>2017-01-15T09:49:19Z</time>
      </trkpt>
      <trkpt lat="43.51443" lon="6.24448">
        <ele>136</ele>
        <time>2017-01-15T09:49:26Z</time>
      </trkpt>
      <trkpt lat="43.51451" lon="6.24456">
        <ele>136</ele>
        <time>2017-01-15T09:49:31Z</time>
      </trkpt>
      <trkpt lat="43.51459" lon="6.24466">
        <ele>136</ele>
        <time>2017-01-15T09:49:39Z</time>
      </trkpt>
      <trkpt lat="43.51465" lon="6.24476">
        <ele>136.1</ele>
        <time>2017-01-15T09:49:46Z</time>
      </trkpt>
      <trkpt lat="43.51474" lon="6.24482">
        <ele>136.1</ele>
        <time>2017-01-15T09:49:50Z</time>
      </trkpt>
      <trkpt lat="43.5148" lon="6.24491">
        <ele>136.1</ele>
        <time>2017-01-15T09:50:02Z</time>
      </trkpt>
      <trkpt lat="43.51486" lon="6.245">
        <ele>135.8</ele>
        <time>2017-01-15T09:50:15Z</time>
      </trkpt>
      <trkpt lat="43.51495" lon="6.24506">
        <ele>135.5</ele>
        <time>2017-01-15T09:50:30Z</time>
      </trkpt>
      <trkpt lat="43.51505" lon="6.24504">
        <ele>135.3</ele>
        <time>2017-01-15T09:50:52Z</time>
      </trkpt>
      <trkpt lat="43.51515" lon="6.24507">
        <ele>135.4</ele>
        <time>2017-01-15T09:51:04Z</time>
      </trkpt>
      <trkpt lat="43.51523" lon="6.24502">
        <ele>135.6</ele>
        <time>2017-01-15T09:51:15Z</time>
      </trkpt>
      <trkpt lat="43.51533" lon="6.24504">
        <ele>135.8</ele>
        <time>2017-01-15T09:51:27Z</time>
      </trkpt>
      <trkpt lat="43.51543" lon="6.24504">
        <ele>135.7</ele>
        <time>2017-01-15T09:51:46Z</time>
      </trkpt>
      <trkpt lat="43.51552" lon="6.24502">
        <ele>136.2</ele>
        <time>2017-01-15T09:52:13Z</time>
      </trkpt>
      <trkpt lat="43.51561" lon="6.24502">
        <ele>136</ele>
        <time>2017-01-15T09:52:22Z</time>
      </trkpt>
      <trkpt lat="43.51569" lon="6.24494">
        <ele>135.7</ele>
        <time>2017-01-15T09:52:49Z</time>
      </trkpt>
      <trkpt lat="43.51577" lon="6.24487">
        <ele>135.6</ele>
        <time>2017-01-15T09:53:01Z</time>
      </trkpt>
      <trkpt lat="43.51585" lon="6.24478">
        <ele>135.9</ele>
        <time>2017-01-15T09:53:16Z</time>
      </trkpt>
      <trkpt lat="43.51575" lon="6.24477">
        <ele>136.5</ele>
        <time>2017-01-15T09:53:27Z</time>
      </trkpt>
      <trkpt lat="43.51582" lon="6.24467">
        <ele>141.5</ele>
        <time>2017-01-15T09:54:14Z</time>
      </trkpt>
      <trkpt lat="43.51585" lon="6.24455">
        <ele>142.2</ele>
        <time>2017-01-15T09:54:53Z</time>
      </trkpt>
      <trkpt lat="43.51579" lon="6.24445">
        <ele>142.4</ele>
        <time>2017-01-15T09:55:05Z</time>
      </trkpt>
      <trkpt lat="43.51575" lon="6.24456">
        <ele>142.6</ele>
        <time>2017-01-15T09:55:47Z</time>
      </trkpt>
      <trkpt lat="43.51579" lon="6.24467">
        <ele>142.6</ele>
        <time>2017-01-15T09:56:19Z</time>
      </trkpt>
      <trkpt lat="43.51588" lon="6.24474">
        <ele>143.6</ele>
        <time>2017-01-15T09:57:38Z</time>
      </trkpt>
      <trkpt lat="43.51581" lon="6.24465">
        <ele>143.5</ele>
        <time>2017-01-15T10:00:28Z</time>
      </trkpt>
      <trkpt lat="43.51583" lon="6.24453">
        <ele>143</ele>
        <time>2017-01-15T10:00:37Z</time>
      </trkpt>
      <trkpt lat="43.51577" lon="6.24444">
        <ele>142.7</ele>
        <time>2017-01-15T10:01:00Z</time>
      </trkpt>
      <trkpt lat="43.5158" lon="6.24432">
        <ele>142.7</ele>
        <time>2017-01-15T10:01:29Z</time>
      </trkpt>
      <trkpt lat="43.51577" lon="6.2442">
        <ele>142.7</ele>
        <time>2017-01-15T10:01:44Z</time>
      </trkpt>
      <trkpt lat="43.51575" lon="6.24407">
        <ele>142.8</ele>
        <time>2017-01-15T10:01:57Z</time>
      </trkpt>
      <trkpt lat="43.51565" lon="6.24404">
        <ele>143.1</ele>
        <time>2017-01-15T10:02:17Z</time>
      </trkpt>
      <trkpt lat="43.51574" lon="6.2441">
        <ele>143.2</ele>
        <time>2017-01-15T10:02:46Z</time>
      </trkpt>
      <trkpt lat="43.51566" lon="6.24404">
        <ele>143.2</ele>
        <time>2017-01-15T10:03:07Z</time>
      </trkpt>
      <trkpt lat="43.51571" lon="6.24393">
        <ele>143.6</ele>
        <time>2017-01-15T10:03:58Z</time>
      </trkpt>
      <trkpt lat="43.51579" lon="6.24386">
        <ele>143.8</ele>
        <time>2017-01-15T10:04:14Z</time>
      </trkpt>
      <trkpt lat="43.51585" lon="6.24377">
        <ele>143.9</ele>
        <time>2017-01-15T10:04:23Z</time>
      </trkpt>
      <trkpt lat="43.51591" lon="6.24365">
        <ele>144.2</ele>
        <time>2017-01-15T10:04:39Z</time>
      </trkpt>
      <trkpt lat="43.51591" lon="6.24352">
        <ele>144.5</ele>
        <time>2017-01-15T10:04:48Z</time>
      </trkpt>
      <trkpt lat="43.51599" lon="6.24344">
        <ele>144.9</ele>
        <time>2017-01-15T10:04:56Z</time>
      </trkpt>
      <trkpt lat="43.51607" lon="6.24333">
        <ele>145.2</ele>
        <time>2017-01-15T10:05:01Z</time>
      </trkpt>
      <trkpt lat="43.51609" lon="6.2432">
        <ele>145.3</ele>
        <time>2017-01-15T10:05:08Z</time>
      </trkpt>
      <trkpt lat="43.51613" lon="6.24308">
        <ele>145.5</ele>
        <time>2017-01-15T10:05:17Z</time>
      </trkpt>
      <trkpt lat="43.5162" lon="6.24299">
        <ele>145.6</ele>
        <time>2017-01-15T10:05:22Z</time>
      </trkpt>
      <trkpt lat="43.51627" lon="6.2429">
        <ele>145.6</ele>
        <time>2017-01-15T10:05:28Z</time>
      </trkpt>
      <trkpt lat="43.51635" lon="6.2428">
        <ele>145.6</ele>
        <time>2017-01-15T10:05:34Z</time>
      </trkpt>
      <trkpt lat="43.51642" lon="6.2427">
        <ele>145.7</ele>
        <time>2017-01-15T10:05:40Z</time>
      </trkpt>
      <trkpt lat="43.51649" lon="6.2426">
        <ele>145.7</ele>
        <time>2017-01-15T10:05:46Z</time>
      </trkpt>
      <trkpt lat="43.51647" lon="6.24248">
        <ele>145.9</ele>
        <time>2017-01-15T10:05:54Z</time>
      </trkpt>
      <trkpt lat="43.5164" lon="6.24239">
        <ele>146.2</ele>
        <time>2017-01-15T10:06:01Z</time>
      </trkpt>
      <trkpt lat="43.51637" lon="6.24227">
        <ele>146.8</ele>
        <time>2017-01-15T10:06:17Z</time>
      </trkpt>
      <trkpt lat="43.51646" lon="6.24226">
        <ele>146.6</ele>
        <time>2017-01-15T10:07:08Z</time>
      </trkpt>
      <trkpt lat="43.51639" lon="6.24218">
        <ele>147</ele>
        <time>2017-01-15T10:07:20Z</time>
      </trkpt>
      <trkpt lat="43.5163" lon="6.24223">
        <ele>147.1</ele>
        <time>2017-01-15T10:07:25Z</time>
      </trkpt>
      <trkpt lat="43.51634" lon="6.24211">
        <ele>147.5</ele>
        <time>2017-01-15T10:07:37Z</time>
      </trkpt>
      <trkpt lat="43.51638" lon="6.24198">
        <ele>147.8</ele>
        <time>2017-01-15T10:07:46Z</time>
      </trkpt>
      <trkpt lat="43.51646" lon="6.24191">
        <ele>147.9</ele>
        <time>2017-01-15T10:07:51Z</time>
      </trkpt>
      <trkpt lat="43.51651" lon="6.24179">
        <ele>148</ele>
        <time>2017-01-15T10:08:03Z</time>
      </trkpt>
      <trkpt lat="43.51642" lon="6.24169">
        <ele>148.4</ele>
        <time>2017-01-15T10:08:17Z</time>
      </trkpt>
      <trkpt lat="43.51631" lon="6.24171">
        <ele>148.5</ele>
        <time>2017-01-15T10:08:21Z</time>
      </trkpt>
      <trkpt lat="43.51622" lon="6.24172">
        <ele>148.6</ele>
        <time>2017-01-15T10:08:26Z</time>
      </trkpt>
      <trkpt lat="43.51621" lon="6.24158">
        <ele>148.7</ele>
        <time>2017-01-15T10:08:39Z</time>
      </trkpt>
      <trkpt lat="43.51625" lon="6.24146">
        <ele>148.7</ele>
        <time>2017-01-15T10:08:47Z</time>
      </trkpt>
      <trkpt lat="43.51632" lon="6.24136">
        <ele>148.9</ele>
        <time>2017-01-15T10:08:51Z</time>
      </trkpt>
      <trkpt lat="43.51639" lon="6.24126">
        <ele>149.1</ele>
        <time>2017-01-15T10:08:56Z</time>
      </trkpt>
      <trkpt lat="43.51644" lon="6.24115">
        <ele>149.3</ele>
        <time>2017-01-15T10:09:04Z</time>
      </trkpt>
      <trkpt lat="43.51649" lon="6.24104">
        <ele>149.4</ele>
        <time>2017-01-15T10:09:13Z</time>
      </trkpt>
      <trkpt lat="43.51652" lon="6.24092">
        <ele>149.5</ele>
        <time>2017-01-15T10:09:44Z</time>
      </trkpt>
      <trkpt lat="43.51643" lon="6.24098">
        <ele>149.6</ele>
        <time>2017-01-15T10:09:59Z</time>
      </trkpt>
      <trkpt lat="43.51634" lon="6.24102">
        <ele>149.6</ele>
        <time>2017-01-15T10:10:14Z</time>
      </trkpt>
      <trkpt lat="43.51637" lon="6.2409">
        <ele>149.9</ele>
        <time>2017-01-15T10:10:29Z</time>
      </trkpt>
      <trkpt lat="43.51646" lon="6.2409">
        <ele>149.9</ele>
        <time>2017-01-15T10:10:38Z</time>
      </trkpt>
      <trkpt lat="43.51656" lon="6.24093">
        <ele>149.8</ele>
        <time>2017-01-15T10:11:04Z</time>
      </trkpt>
      <trkpt lat="43.51648" lon="6.24087">
        <ele>149.7</ele>
        <time>2017-01-15T10:11:42Z</time>
      </trkpt>
      <trkpt lat="43.51647" lon="6.24073">
        <ele>149.7</ele>
        <time>2017-01-15T10:12:00Z</time>
      </trkpt>
      <trkpt lat="43.51643" lon="6.24059">
        <ele>149.8</ele>
        <time>2017-01-15T10:12:09Z</time>
      </trkpt>
      <trkpt lat="43.51635" lon="6.24053">
        <ele>149.9</ele>
        <time>2017-01-15T10:12:16Z</time>
      </trkpt>
      <trkpt lat="43.51636" lon="6.24041">
        <ele>150.3</ele>
        <time>2017-01-15T10:12:25Z</time>
      </trkpt>
      <trkpt lat="43.51635" lon="6.24027">
        <ele>151</ele>
        <time>2017-01-15T10:12:35Z</time>
      </trkpt>
      <trkpt lat="43.51632" lon="6.24014">
        <ele>151.4</ele>
        <time>2017-01-15T10:12:43Z</time>
      </trkpt>
      <trkpt lat="43.51628" lon="6.24001">
        <ele>151.8</ele>
        <time>2017-01-15T10:12:53Z</time>
      </trkpt>
      <trkpt lat="43.51626" lon="6.23987">
        <ele>152.6</ele>
        <time>2017-01-15T10:13:02Z</time>
      </trkpt>
      <trkpt lat="43.51627" lon="6.23974">
        <ele>153.3</ele>
        <time>2017-01-15T10:13:09Z</time>
      </trkpt>
      <trkpt lat="43.51635" lon="6.23966">
        <ele>154.5</ele>
        <time>2017-01-15T10:13:19Z</time>
      </trkpt>
      <trkpt lat="43.51642" lon="6.23974">
        <ele>155.6</ele>
        <time>2017-01-15T10:13:32Z</time>
      </trkpt>
      <trkpt lat="43.51651" lon="6.23978">
        <ele>156</ele>
        <time>2017-01-15T10:13:41Z</time>
      </trkpt>
      <trkpt lat="43.5166" lon="6.23976">
        <ele>156.1</ele>
        <time>2017-01-15T10:13:48Z</time>
      </trkpt>
      <trkpt lat="43.51669" lon="6.23977">
        <ele>156.6</ele>
        <time>2017-01-15T10:14:04Z</time>
      </trkpt>
      <trkpt lat="43.51679" lon="6.2398">
        <ele>157.2</ele>
        <time>2017-01-15T10:14:11Z</time>
      </trkpt>
      <trkpt lat="43.51689" lon="6.23978">
        <ele>157.8</ele>
        <time>2017-01-15T10:14:20Z</time>
      </trkpt>
      <trkpt lat="43.51698" lon="6.23982">
        <ele>158.1</ele>
        <time>2017-01-15T10:14:30Z</time>
      </trkpt>
      <trkpt lat="43.517" lon="6.23994">
        <ele>158.2</ele>
        <time>2017-01-15T10:14:41Z</time>
      </trkpt>
      <trkpt lat="43.51699" lon="6.24006">
        <ele>158.1</ele>
        <time>2017-01-15T10:14:51Z</time>
      </trkpt>
      <trkpt lat="43.51695" lon="6.24019">
        <ele>157.8</ele>
        <time>2017-01-15T10:15:01Z</time>
      </trkpt>
      <trkpt lat="43.51692" lon="6.24031">
        <ele>157.6</ele>
        <time>2017-01-15T10:15:10Z</time>
      </trkpt>
      <trkpt lat="43.51686" lon="6.24042">
        <ele>157.1</ele>
        <time>2017-01-15T10:15:22Z</time>
      </trkpt>
      <trkpt lat="43.5168" lon="6.24052">
        <ele>156.6</ele>
        <time>2017-01-15T10:15:30Z</time>
      </trkpt>
      <trkpt lat="43.51672" lon="6.24059">
        <ele>156.3</ele>
        <time>2017-01-15T10:15:39Z</time>
      </trkpt>
      <trkpt lat="43.51663" lon="6.24064">
        <ele>155.9</ele>
        <time>2017-01-15T10:16:03Z</time>
      </trkpt>
      <trkpt lat="43.51672" lon="6.24071">
        <ele>155.5</ele>
        <time>2017-01-15T10:16:25Z</time>
      </trkpt>
      <trkpt lat="43.51677" lon="6.2408">
        <ele>156.1</ele>
        <time>2017-01-15T10:16:37Z</time>
      </trkpt>
      <trkpt lat="43.51682" lon="6.24092">
        <ele>156.3</ele>
        <time>2017-01-15T10:16:49Z</time>
      </trkpt>
      <trkpt lat="43.5169" lon="6.24099">
        <ele>155.9</ele>
        <time>2017-01-15T10:17:00Z</time>
      </trkpt>
      <trkpt lat="43.51698" lon="6.24106">
        <ele>155.1</ele>
        <time>2017-01-15T10:17:12Z</time>
      </trkpt>
      <trkpt lat="43.51704" lon="6.24116">
        <ele>153.9</ele>
        <time>2017-01-15T10:17:27Z</time>
      </trkpt>
      <trkpt lat="43.51711" lon="6.24124">
        <ele>153.2</ele>
        <time>2017-01-15T10:17:37Z</time>
      </trkpt>
      <trkpt lat="43.51717" lon="6.24134">
        <ele>152.6</ele>
        <time>2017-01-15T10:17:47Z</time>
      </trkpt>
      <trkpt lat="43.51721" lon="6.24146">
        <ele>151.4</ele>
        <time>2017-01-15T10:17:59Z</time>
      </trkpt>
      <trkpt lat="43.5172" lon="6.24159">
        <ele>150.6</ele>
        <time>2017-01-15T10:18:08Z</time>
      </trkpt>
      <trkpt lat="43.51717" lon="6.24172">
        <ele>150.1</ele>
        <time>2017-01-15T10:18:18Z</time>
      </trkpt>
      <trkpt lat="43.51712" lon="6.24183">
        <ele>149.8</ele>
        <time>2017-01-15T10:18:27Z</time>
      </trkpt>
      <trkpt lat="43.51708" lon="6.24194">
        <ele>149.7</ele>
        <time>2017-01-15T10:18:35Z</time>
      </trkpt>
      <trkpt lat="43.51706" lon="6.24207">
        <ele>149.4</ele>
        <time>2017-01-15T10:18:43Z</time>
      </trkpt>
      <trkpt lat="43.51705" lon="6.2422">
        <ele>149</ele>
        <time>2017-01-15T10:18:51Z</time>
      </trkpt>
      <trkpt lat="43.51701" lon="6.24232">
        <ele>148.9</ele>
        <time>2017-01-15T10:18:58Z</time>
      </trkpt>
      <trkpt lat="43.51698" lon="6.24244">
        <ele>148.9</ele>
        <time>2017-01-15T10:19:07Z</time>
      </trkpt>
      <trkpt lat="43.51698" lon="6.24257">
        <ele>148.9</ele>
        <time>2017-01-15T10:19:15Z</time>
      </trkpt>
      <trkpt lat="43.51697" lon="6.2427">
        <ele>148.9</ele>
        <time>2017-01-15T10:19:23Z</time>
      </trkpt>
      <trkpt lat="43.51693" lon="6.24282">
        <ele>148.9</ele>
        <time>2017-01-15T10:19:31Z</time>
      </trkpt>
      <trkpt lat="43.51694" lon="6.24294">
        <ele>148.9</ele>
        <time>2017-01-15T10:19:39Z</time>
      </trkpt>
      <trkpt lat="43.51694" lon="6.24307">
        <ele>148.8</ele>
        <time>2017-01-15T10:19:50Z</time>
      </trkpt>
      <trkpt lat="43.51687" lon="6.24316">
        <ele>148.7</ele>
        <time>2017-01-15T10:19:58Z</time>
      </trkpt>
      <trkpt lat="43.51686" lon="6.24329">
        <ele>148.6</ele>
        <time>2017-01-15T10:20:15Z</time>
      </trkpt>
      <trkpt lat="43.51681" lon="6.2434">
        <ele>148.6</ele>
        <time>2017-01-15T10:20:24Z</time>
      </trkpt>
      <trkpt lat="43.51679" lon="6.24354">
        <ele>148.5</ele>
        <time>2017-01-15T10:20:32Z</time>
      </trkpt>
      <trkpt lat="43.51677" lon="6.24367">
        <ele>148.5</ele>
        <time>2017-01-15T10:20:41Z</time>
      </trkpt>
      <trkpt lat="43.51675" lon="6.2438">
        <ele>148.2</ele>
        <time>2017-01-15T10:20:49Z</time>
      </trkpt>
      <trkpt lat="43.51672" lon="6.24392">
        <ele>148.1</ele>
        <time>2017-01-15T10:20:57Z</time>
      </trkpt>
      <trkpt lat="43.5167" lon="6.24406">
        <ele>148.4</ele>
        <time>2017-01-15T10:21:06Z</time>
      </trkpt>
      <trkpt lat="43.51669" lon="6.24419">
        <ele>148.6</ele>
        <time>2017-01-15T10:21:15Z</time>
      </trkpt>
      <trkpt lat="43.51666" lon="6.24432">
        <ele>148.9</ele>
        <time>2017-01-15T10:21:22Z</time>
      </trkpt>
      <trkpt lat="43.5166" lon="6.24441">
        <ele>148.9</ele>
        <time>2017-01-15T10:21:33Z</time>
      </trkpt>
      <trkpt lat="43.5165" lon="6.24439">
        <ele>148.7</ele>
        <time>2017-01-15T10:21:40Z</time>
      </trkpt>
      <trkpt lat="43.51641" lon="6.24439">
        <ele>147.8</ele>
        <time>2017-01-15T10:21:50Z</time>
      </trkpt>
      <trkpt lat="43.51631" lon="6.24439">
        <ele>146.8</ele>
        <time>2017-01-15T10:21:58Z</time>
      </trkpt>
      <trkpt lat="43.51622" lon="6.24437">
        <ele>146.1</ele>
        <time>2017-01-15T10:22:06Z</time>
      </trkpt>
      <trkpt lat="43.51612" lon="6.24437">
        <ele>145.7</ele>
        <time>2017-01-15T10:22:14Z</time>
      </trkpt>
      <trkpt lat="43.51603" lon="6.24436">
        <ele>145.5</ele>
        <time>2017-01-15T10:22:21Z</time>
      </trkpt>
      <trkpt lat="43.51594" lon="6.24436">
        <ele>144.9</ele>
        <time>2017-01-15T10:22:38Z</time>
      </trkpt>
      <trkpt lat="43.51584" lon="6.24438">
        <ele>144.8</ele>
        <time>2017-01-15T10:22:45Z</time>
      </trkpt>
      <trkpt lat="43.51578" lon="6.24429">
        <ele>144.3</ele>
        <time>2017-01-15T10:22:56Z</time>
      </trkpt>
      <trkpt lat="43.51576" lon="6.24415">
        <ele>144</ele>
        <time>2017-01-15T10:23:09Z</time>
      </trkpt>
      <trkpt lat="43.51566" lon="6.24414">
        <ele>144.3</ele>
        <time>2017-01-15T10:23:43Z</time>
      </trkpt>
      <trkpt lat="43.51556" lon="6.24417">
        <ele>144.3</ele>
        <time>2017-01-15T10:23:50Z</time>
      </trkpt>
      <trkpt lat="43.51553" lon="6.2443">
        <ele>144.3</ele>
        <time>2017-01-15T10:24:06Z</time>
      </trkpt>
      <trkpt lat="43.51551" lon="6.24443">
        <ele>144.3</ele>
        <time>2017-01-15T10:24:18Z</time>
      </trkpt>
      <trkpt lat="43.51546" lon="6.24454">
        <ele>144.4</ele>
        <time>2017-01-15T10:24:26Z</time>
      </trkpt>
      <trkpt lat="43.51539" lon="6.24462">
        <ele>145.1</ele>
        <time>2017-01-15T10:24:40Z</time>
      </trkpt>
      <trkpt lat="43.5153" lon="6.24463">
        <ele>145.7</ele>
        <time>2017-01-15T10:24:55Z</time>
      </trkpt>
      <trkpt lat="43.51522" lon="6.2447">
        <ele>146.1</ele>
        <time>2017-01-15T10:25:08Z</time>
      </trkpt>
      <trkpt lat="43.51512" lon="6.24467">
        <ele>146.6</ele>
        <time>2017-01-15T10:25:26Z</time>
      </trkpt>
      <trkpt lat="43.51503" lon="6.24463">
        <ele>146.4</ele>
        <time>2017-01-15T10:25:36Z</time>
      </trkpt>
      <trkpt lat="43.51494" lon="6.24457">
        <ele>146.2</ele>
        <time>2017-01-15T10:25:44Z</time>
      </trkpt>
      <trkpt lat="43.51487" lon="6.24449">
        <ele>145.9</ele>
        <time>2017-01-15T10:25:53Z</time>
      </trkpt>
      <trkpt lat="43.51478" lon="6.24448">
        <ele>145.5</ele>
        <time>2017-01-15T10:26:00Z</time>
      </trkpt>
      <trkpt lat="43.5147" lon="6.24441">
        <ele>145.1</ele>
        <time>2017-01-15T10:26:09Z</time>
      </trkpt>
      <trkpt lat="43.51466" lon="6.24429">
        <ele>144.8</ele>
        <time>2017-01-15T10:26:17Z</time>
      </trkpt>
      <trkpt lat="43.51457" lon="6.24433">
        <ele>144.3</ele>
        <time>2017-01-15T10:26:34Z</time>
      </trkpt>
      <trkpt lat="43.51445" lon="6.24427">
        <ele>142</ele>
        <time>2017-01-15T10:27:07Z</time>
      </trkpt>
      <trkpt lat="43.51434" lon="6.24429">
        <ele>141</ele>
        <time>2017-01-15T10:27:15Z</time>
      </trkpt>
      <trkpt lat="43.51424" lon="6.24429">
        <ele>140.3</ele>
        <time>2017-01-15T10:27:35Z</time>
      </trkpt>
      <trkpt lat="43.51416" lon="6.24432">
        <ele>138.7</ele>
        <time>2017-01-15T10:27:48Z</time>
      </trkpt>
      <trkpt lat="43.5141" lon="6.24421">
        <ele>136</ele>
        <time>2017-01-15T10:28:16Z</time>
      </trkpt>
      <trkpt lat="43.51409" lon="6.24408">
        <ele>136</ele>
        <time>2017-01-15T10:29:07Z</time>
      </trkpt>
      <trkpt lat="43.51411" lon="6.24421">
        <ele>136.1</ele>
        <time>2017-01-15T10:30:32Z</time>
      </trkpt>
      <trkpt lat="43.51416" lon="6.24433">
        <ele>136.4</ele>
        <time>2017-01-15T10:30:51Z</time>
      </trkpt>
      <trkpt lat="43.51425" lon="6.2444">
        <ele>137.1</ele>
        <time>2017-01-15T10:31:01Z</time>
      </trkpt>
      <trkpt lat="43.51434" lon="6.24443">
        <ele>140.4</ele>
        <time>2017-01-15T10:31:31Z</time>
      </trkpt>
      <trkpt lat="43.51441" lon="6.24435">
        <ele>141.2</ele>
        <time>2017-01-15T10:31:37Z</time>
      </trkpt>
      <trkpt lat="43.51451" lon="6.24431">
        <ele>143.1</ele>
        <time>2017-01-15T10:32:00Z</time>
      </trkpt>
      <trkpt lat="43.51444" lon="6.24422">
        <ele>144.6</ele>
        <time>2017-01-15T10:32:43Z</time>
      </trkpt>
      <trkpt lat="43.51434" lon="6.24419">
        <ele>145</ele>
        <time>2017-01-15T10:33:02Z</time>
      </trkpt>
      <trkpt lat="43.51437" lon="6.24402">
        <ele>146.4</ele>
        <time>2017-01-15T10:33:13Z</time>
      </trkpt>
      <trkpt lat="43.51441" lon="6.24382">
        <ele>146</ele>
        <time>2017-01-15T10:33:22Z</time>
      </trkpt>
      <trkpt lat="43.51446" lon="6.24369">
        <ele>147</ele>
        <time>2017-01-15T10:33:28Z</time>
      </trkpt>
      <trkpt lat="43.51446" lon="6.24353">
        <ele>148</ele>
        <time>2017-01-15T10:33:40Z</time>
      </trkpt>
      <trkpt lat="43.51438" lon="6.24357">
        <ele>148.8</ele>
        <time>2017-01-15T10:33:47Z</time>
      </trkpt>
      <trkpt lat="43.51444" lon="6.24348">
        <ele>151.2</ele>
        <time>2017-01-15T10:34:46Z</time>
      </trkpt>
      <trkpt lat="43.51453" lon="6.24342">
        <ele>152.2</ele>
        <time>2017-01-15T10:35:06Z</time>
      </trkpt>
      <trkpt lat="43.51458" lon="6.24354">
        <ele>153</ele>
        <time>2017-01-15T10:35:37Z</time>
      </trkpt>
      <trkpt lat="43.51462" lon="6.24365">
        <ele>153</ele>
        <time>2017-01-15T10:36:22Z</time>
      </trkpt>
      <trkpt lat="43.51471" lon="6.24368">
        <ele>153.6</ele>
        <time>2017-01-15T10:36:46Z</time>
      </trkpt>
      <trkpt lat="43.51478" lon="6.24378">
        <ele>154.2</ele>
        <time>2017-01-15T10:36:58Z</time>
      </trkpt>
      <trkpt lat="43.51481" lon="6.24391">
        <ele>154.8</ele>
        <time>2017-01-15T10:37:08Z</time>
      </trkpt>
      <trkpt lat="43.51491" lon="6.24395">
        <ele>156.3</ele>
        <time>2017-01-15T10:37:35Z</time>
      </trkpt>
      <trkpt lat="43.51501" lon="6.24402">
        <ele>156</ele>
        <time>2017-01-15T10:38:00Z</time>
      </trkpt>
      <trkpt lat="43.51492" lon="6.24407">
        <ele>157.3</ele>
        <time>2017-01-15T10:38:11Z</time>
      </trkpt>
      <trkpt lat="43.51499" lon="6.24416">
        <ele>158.4</ele>
        <time>2017-01-15T10:38:40Z</time>
      </trkpt>
      <trkpt lat="43.51506" lon="6.24425">
        <ele>158.8</ele>
        <time>2017-01-15T10:38:46Z</time>
      </trkpt>
      <trkpt lat="43.51511" lon="6.24435">
        <ele>159.8</ele>
        <time>2017-01-15T10:39:03Z</time>
      </trkpt>
      <trkpt lat="43.5151" lon="6.24422">
        <ele>162.4</ele>
        <time>2017-01-15T10:39:32Z</time>
      </trkpt>
      <trkpt lat="43.51511" lon="6.2441">
        <ele>164</ele>
        <time>2017-01-15T10:39:45Z</time>
      </trkpt>
      <trkpt lat="43.51515" lon="6.24399">
        <ele>165.6</ele>
        <time>2017-01-15T10:40:00Z</time>
      </trkpt>
      <trkpt lat="43.51524" lon="6.24404">
        <ele>166.6</ele>
        <time>2017-01-15T10:40:36Z</time>
      </trkpt>
      <trkpt lat="43.51532" lon="6.24411">
        <ele>166.7</ele>
        <time>2017-01-15T10:40:58Z</time>
      </trkpt>
      <trkpt lat="43.51535" lon="6.24399">
        <ele>166.8</ele>
        <time>2017-01-15T10:43:03Z</time>
      </trkpt>
      <trkpt lat="43.51539" lon="6.24387">
        <ele>166.1</ele>
        <time>2017-01-15T10:43:20Z</time>
      </trkpt>
      <trkpt lat="43.51538" lon="6.24374">
        <ele>164.9</ele>
        <time>2017-01-15T10:43:39Z</time>
      </trkpt>
      <trkpt lat="43.51542" lon="6.24363">
        <ele>164.3</ele>
        <time>2017-01-15T10:43:45Z</time>
      </trkpt>
      <trkpt lat="43.5155" lon="6.24356">
        <ele>162.4</ele>
        <time>2017-01-15T10:43:55Z</time>
      </trkpt>
      <trkpt lat="43.51559" lon="6.2435">
        <ele>160.9</ele>
        <time>2017-01-15T10:44:02Z</time>
      </trkpt>
      <trkpt lat="43.51568" lon="6.24352">
        <ele>157.3</ele>
        <time>2017-01-15T10:44:23Z</time>
      </trkpt>
      <trkpt lat="43.51572" lon="6.24341">
        <ele>156.5</ele>
        <time>2017-01-15T10:44:31Z</time>
      </trkpt>
      <trkpt lat="43.51575" lon="6.24327">
        <ele>156.2</ele>
        <time>2017-01-15T10:44:38Z</time>
      </trkpt>
      <trkpt lat="43.51575" lon="6.24314">
        <ele>156.2</ele>
        <time>2017-01-15T10:44:48Z</time>
      </trkpt>
      <trkpt lat="43.51566" lon="6.24314">
        <ele>157</ele>
        <time>2017-01-15T10:45:19Z</time>
      </trkpt>
      <trkpt lat="43.51575" lon="6.24309">
        <ele>157.9</ele>
        <time>2017-01-15T10:48:24Z</time>
      </trkpt>
      <trkpt lat="43.51583" lon="6.24305">
        <ele>156.9</ele>
        <time>2017-01-15T10:49:32Z</time>
      </trkpt>
      <trkpt lat="43.51588" lon="6.24294">
        <ele>156.2</ele>
        <time>2017-01-15T10:49:43Z</time>
      </trkpt>
      <trkpt lat="43.51591" lon="6.24282">
        <ele>155.9</ele>
        <time>2017-01-15T10:49:50Z</time>
      </trkpt>
      <trkpt lat="43.51597" lon="6.24273">
        <ele>155</ele>
        <time>2017-01-15T10:50:02Z</time>
      </trkpt>
      <trkpt lat="43.51607" lon="6.24269">
        <ele>154.4</ele>
        <time>2017-01-15T10:50:47Z</time>
      </trkpt>
      <trkpt lat="43.51603" lon="6.24258">
        <ele>154</ele>
        <time>2017-01-15T10:51:18Z</time>
      </trkpt>
      <trkpt lat="43.51594" lon="6.24252">
        <ele>153.9</ele>
        <time>2017-01-15T10:51:29Z</time>
      </trkpt>
      <trkpt lat="43.51586" lon="6.24246">
        <ele>153.8</ele>
        <time>2017-01-15T10:51:50Z</time>
      </trkpt>
      <trkpt lat="43.51585" lon="6.24234">
        <ele>153.4</ele>
        <time>2017-01-15T10:53:11Z</time>
      </trkpt>
      <trkpt lat="43.51576" lon="6.24231">
        <ele>152</ele>
        <time>2017-01-15T10:53:37Z</time>
      </trkpt>
      <trkpt lat="43.5157" lon="6.24221">
        <ele>151.7</ele>
        <time>2017-01-15T10:54:06Z</time>
      </trkpt>
      <trkpt lat="43.51562" lon="6.24227">
        <ele>151.6</ele>
        <time>2017-01-15T10:54:23Z</time>
      </trkpt>
      <trkpt lat="43.51552" lon="6.2423">
        <ele>151.6</ele>
        <time>2017-01-15T10:54:40Z</time>
      </trkpt>
      <trkpt lat="43.51543" lon="6.24232">
        <ele>151.5</ele>
        <time>2017-01-15T10:54:53Z</time>
      </trkpt>
      <trkpt lat="43.51534" lon="6.24232">
        <ele>151.6</ele>
        <time>2017-01-15T10:55:04Z</time>
      </trkpt>
      <trkpt lat="43.51524" lon="6.2423">
        <ele>151.5</ele>
        <time>2017-01-15T10:55:20Z</time>
      </trkpt>
      <trkpt lat="43.51517" lon="6.24239">
        <ele>151.8</ele>
        <time>2017-01-15T10:55:59Z</time>
      </trkpt>
      <trkpt lat="43.51508" lon="6.24236">
        <ele>152.2</ele>
        <time>2017-01-15T10:56:32Z</time>
      </trkpt>
      <trkpt lat="43.51499" lon="6.24232">
        <ele>153.3</ele>
        <time>2017-01-15T10:56:48Z</time>
      </trkpt>
      <trkpt lat="43.51491" lon="6.24238">
        <ele>153.7</ele>
        <time>2017-01-15T10:56:56Z</time>
      </trkpt>
      <trkpt lat="43.51484" lon="6.24246">
        <ele>154.5</ele>
        <time>2017-01-15T10:57:11Z</time>
      </trkpt>
      <trkpt lat="43.5148" lon="6.24257">
        <ele>155.6</ele>
        <time>2017-01-15T10:57:36Z</time>
      </trkpt>
      <trkpt lat="43.51475" lon="6.24268">
        <ele>156.4</ele>
        <time>2017-01-15T10:58:13Z</time>
      </trkpt>
      <trkpt lat="43.51482" lon="6.24275">
        <ele>157.3</ele>
        <time>2017-01-15T10:58:40Z</time>
      </trkpt>
      <trkpt lat="43.5149" lon="6.24283">
        <ele>157.2</ele>
        <time>2017-01-15T10:58:57Z</time>
      </trkpt>
      <trkpt lat="43.51481" lon="6.24277">
        <ele>157</ele>
        <time>2017-01-15T10:59:26Z</time>
      </trkpt>
      <trkpt lat="43.51471" lon="6.24274">
        <ele>158.1</ele>
        <time>2017-01-15T10:59:31Z</time>
      </trkpt>
      <trkpt lat="43.51462" lon="6.24271">
        <ele>158.8</ele>
        <time>2017-01-15T10:59:38Z</time>
      </trkpt>
      <trkpt lat="43.51454" lon="6.24268">
        <ele>159.9</ele>
        <time>2017-01-15T10:59:47Z</time>
      </trkpt>
      <trkpt lat="43.51445" lon="6.24268">
        <ele>166.2</ele>
        <time>2017-01-15T11:00:41Z</time>
      </trkpt>
      <trkpt lat="43.51445" lon="6.24255">
        <ele>168</ele>
        <time>2017-01-15T11:00:58Z</time>
      </trkpt>
      <trkpt lat="43.51438" lon="6.24246">
        <ele>169.5</ele>
        <time>2017-01-15T11:01:11Z</time>
      </trkpt>
      <trkpt lat="43.51429" lon="6.24242">
        <ele>171.2</ele>
        <time>2017-01-15T11:01:22Z</time>
      </trkpt>
      <trkpt lat="43.51421" lon="6.24235">
        <ele>172.2</ele>
        <time>2017-01-15T11:01:32Z</time>
      </trkpt>
      <trkpt lat="43.51424" lon="6.24223">
        <ele>176.9</ele>
        <time>2017-01-15T11:02:13Z</time>
      </trkpt>
      <trkpt lat="43.51427" lon="6.2421">
        <ele>178.9</ele>
        <time>2017-01-15T11:02:26Z</time>
      </trkpt>
      <trkpt lat="43.51421" lon="6.242">
        <ele>181.3</ele>
        <time>2017-01-15T11:02:41Z</time>
      </trkpt>
      <trkpt lat="43.51412" lon="6.24198">
        <ele>183</ele>
        <time>2017-01-15T11:02:54Z</time>
      </trkpt>
      <trkpt lat="43.51403" lon="6.24194">
        <ele>187.9</ele>
        <time>2017-01-15T11:03:25Z</time>
      </trkpt>
      <trkpt lat="43.51406" lon="6.24181">
        <ele>193</ele>
        <time>2017-01-15T11:04:05Z</time>
      </trkpt>
      <trkpt lat="43.51399" lon="6.24173">
        <ele>197.8</ele>
        <time>2017-01-15T11:04:36Z</time>
      </trkpt>
      <trkpt lat="43.5139" lon="6.24168">
        <ele>199.2</ele>
        <time>2017-01-15T11:04:52Z</time>
      </trkpt>
      <trkpt lat="43.51388" lon="6.24156">
        <ele>200.8</ele>
        <time>2017-01-15T11:05:10Z</time>
      </trkpt>
      <trkpt lat="43.51381" lon="6.24145">
        <ele>202.6</ele>
        <time>2017-01-15T11:05:27Z</time>
      </trkpt>
      <trkpt lat="43.51374" lon="6.24137">
        <ele>204.8</ele>
        <time>2017-01-15T11:05:43Z</time>
      </trkpt>
      <trkpt lat="43.51368" lon="6.24128">
        <ele>206.8</ele>
        <time>2017-01-15T11:05:58Z</time>
      </trkpt>
      <trkpt lat="43.51362" lon="6.24117">
        <ele>210.9</ele>
        <time>2017-01-15T11:06:39Z</time>
      </trkpt>
      <trkpt lat="43.51356" lon="6.24108">
        <ele>212.8</ele>
        <time>2017-01-15T11:06:55Z</time>
      </trkpt>
      <trkpt lat="43.51353" lon="6.24096">
        <ele>218.8</ele>
        <time>2017-01-15T11:07:36Z</time>
      </trkpt>
      <trkpt lat="43.51351" lon="6.24083">
        <ele>220</ele>
        <time>2017-01-15T11:07:46Z</time>
      </trkpt>
      <trkpt lat="43.51349" lon="6.2407">
        <ele>221.2</ele>
        <time>2017-01-15T11:07:59Z</time>
      </trkpt>
      <trkpt lat="43.51344" lon="6.2406">
        <ele>222.1</ele>
        <time>2017-01-15T11:08:11Z</time>
      </trkpt>
      <trkpt lat="43.51337" lon="6.24051">
        <ele>223.9</ele>
        <time>2017-01-15T11:09:08Z</time>
      </trkpt>
      <trkpt lat="43.51345" lon="6.24059">
        <ele>225.9</ele>
        <time>2017-01-15T11:12:05Z</time>
      </trkpt>
      <trkpt lat="43.51353" lon="6.24064">
        <ele>227.4</ele>
        <time>2017-01-15T11:12:21Z</time>
      </trkpt>
      <trkpt lat="43.5136" lon="6.24052">
        <ele>232.8</ele>
        <time>2017-01-15T11:12:59Z</time>
      </trkpt>
      <trkpt lat="43.51362" lon="6.24039">
        <ele>233.6</ele>
        <time>2017-01-15T11:13:05Z</time>
      </trkpt>
      <trkpt lat="43.5136" lon="6.24027">
        <ele>235.9</ele>
        <time>2017-01-15T11:14:04Z</time>
      </trkpt>
      <trkpt lat="43.51361" lon="6.24015">
        <ele>234.1</ele>
        <time>2017-01-15T11:16:18Z</time>
      </trkpt>
      <trkpt lat="43.51355" lon="6.24028">
        <ele>234.7</ele>
        <time>2017-01-15T12:03:42Z</time>
      </trkpt>
      <trkpt lat="43.51362" lon="6.24038">
        <ele>233.9</ele>
        <time>2017-01-15T12:04:32Z</time>
      </trkpt>
      <trkpt lat="43.51369" lon="6.24031">
        <ele>235.9</ele>
        <time>2017-01-15T12:04:42Z</time>
      </trkpt>
      <trkpt lat="43.51379" lon="6.24029">
        <ele>237.7</ele>
        <time>2017-01-15T12:04:54Z</time>
      </trkpt>
      <trkpt lat="43.51386" lon="6.24038">
        <ele>237.8</ele>
        <time>2017-01-15T12:05:03Z</time>
      </trkpt>
      <trkpt lat="43.51392" lon="6.24049">
        <ele>237.1</ele>
        <time>2017-01-15T12:05:13Z</time>
      </trkpt>
      <trkpt lat="43.51383" lon="6.2405">
        <ele>236.6</ele>
        <time>2017-01-15T12:06:28Z</time>
      </trkpt>
      <trkpt lat="43.51374" lon="6.24049">
        <ele>237.2</ele>
        <time>2017-01-15T12:07:02Z</time>
      </trkpt>
      <trkpt lat="43.51365" lon="6.24049">
        <ele>236.6</ele>
        <time>2017-01-15T12:07:13Z</time>
      </trkpt>
      <trkpt lat="43.5136" lon="6.24062">
        <ele>236</ele>
        <time>2017-01-15T12:07:18Z</time>
      </trkpt>
      <trkpt lat="43.51351" lon="6.24058">
        <ele>233.2</ele>
        <time>2017-01-15T12:07:35Z</time>
      </trkpt>
      <trkpt lat="43.51342" lon="6.24053">
        <ele>231.8</ele>
        <time>2017-01-15T12:07:43Z</time>
      </trkpt>
      <trkpt lat="43.51338" lon="6.24064">
        <ele>229.9</ele>
        <time>2017-01-15T12:07:53Z</time>
      </trkpt>
      <trkpt lat="43.51343" lon="6.24074">
        <ele>227.9</ele>
        <time>2017-01-15T12:08:02Z</time>
      </trkpt>
      <trkpt lat="43.51345" lon="6.24087">
        <ele>225.7</ele>
        <time>2017-01-15T12:08:12Z</time>
      </trkpt>
      <trkpt lat="43.51346" lon="6.24099">
        <ele>222</ele>
        <time>2017-01-15T12:08:26Z</time>
      </trkpt>
      <trkpt lat="43.51352" lon="6.2411">
        <ele>219.5</ele>
        <time>2017-01-15T12:08:36Z</time>
      </trkpt>
      <trkpt lat="43.51358" lon="6.24121">
        <ele>217.1</ele>
        <time>2017-01-15T12:08:44Z</time>
      </trkpt>
      <trkpt lat="43.51364" lon="6.24131">
        <ele>214.6</ele>
        <time>2017-01-15T12:08:56Z</time>
      </trkpt>
      <trkpt lat="43.5137" lon="6.24141">
        <ele>212.2</ele>
        <time>2017-01-15T12:09:06Z</time>
      </trkpt>
      <trkpt lat="43.51377" lon="6.24151">
        <ele>210.1</ele>
        <time>2017-01-15T12:09:14Z</time>
      </trkpt>
      <trkpt lat="43.51382" lon="6.24161">
        <ele>207.4</ele>
        <time>2017-01-15T12:09:24Z</time>
      </trkpt>
      <trkpt lat="43.51391" lon="6.24166">
        <ele>205.7</ele>
        <time>2017-01-15T12:09:31Z</time>
      </trkpt>
      <trkpt lat="43.514" lon="6.24164">
        <ele>204.2</ele>
        <time>2017-01-15T12:09:39Z</time>
      </trkpt>
      <trkpt lat="43.51393" lon="6.24173">
        <ele>199.1</ele>
        <time>2017-01-15T12:09:56Z</time>
      </trkpt>
      <trkpt lat="43.51397" lon="6.24184">
        <ele>195.9</ele>
        <time>2017-01-15T12:10:08Z</time>
      </trkpt>
      <trkpt lat="43.51402" lon="6.24195">
        <ele>193.1</ele>
        <time>2017-01-15T12:10:20Z</time>
      </trkpt>
      <trkpt lat="43.51412" lon="6.24198">
        <ele>189.7</ele>
        <time>2017-01-15T12:10:34Z</time>
      </trkpt>
      <trkpt lat="43.51419" lon="6.24207">
        <ele>187.2</ele>
        <time>2017-01-15T12:10:47Z</time>
      </trkpt>
      <trkpt lat="43.51417" lon="6.2422">
        <ele>184.9</ele>
        <time>2017-01-15T12:11:00Z</time>
      </trkpt>
      <trkpt lat="43.51422" lon="6.24231">
        <ele>182.8</ele>
        <time>2017-01-15T12:11:11Z</time>
      </trkpt>
      <trkpt lat="43.5143" lon="6.24238">
        <ele>180.3</ele>
        <time>2017-01-15T12:11:23Z</time>
      </trkpt>
      <trkpt lat="43.51437" lon="6.24248">
        <ele>176.6</ele>
        <time>2017-01-15T12:11:38Z</time>
      </trkpt>
      <trkpt lat="43.5143" lon="6.24257">
        <ele>172.8</ele>
        <time>2017-01-15T12:11:57Z</time>
      </trkpt>
      <trkpt lat="43.51422" lon="6.24265">
        <ele>171.1</ele>
        <time>2017-01-15T12:12:03Z</time>
      </trkpt>
      <trkpt lat="43.5142" lon="6.24278">
        <ele>168.8</ele>
        <time>2017-01-15T12:12:14Z</time>
      </trkpt>
      <trkpt lat="43.51421" lon="6.24291">
        <ele>167.5</ele>
        <time>2017-01-15T12:12:22Z</time>
      </trkpt>
      <trkpt lat="43.51416" lon="6.24304">
        <ele>161.5</ele>
        <time>2017-01-15T12:12:45Z</time>
      </trkpt>
      <trkpt lat="43.51415" lon="6.24316">
        <ele>158.9</ele>
        <time>2017-01-15T12:12:57Z</time>
      </trkpt>
      <trkpt lat="43.51416" lon="6.24331">
        <ele>158.1</ele>
        <time>2017-01-15T12:13:06Z</time>
      </trkpt>
      <trkpt lat="43.51423" lon="6.24341">
        <ele>157.4</ele>
        <time>2017-01-15T12:13:14Z</time>
      </trkpt>
      <trkpt lat="43.51428" lon="6.24354">
        <ele>157.1</ele>
        <time>2017-01-15T12:13:20Z</time>
      </trkpt>
      <trkpt lat="43.51433" lon="6.24365">
        <ele>156.7</ele>
        <time>2017-01-15T12:13:27Z</time>
      </trkpt>
      <trkpt lat="43.51442" lon="6.24369">
        <ele>156.6</ele>
        <time>2017-01-15T12:13:34Z</time>
      </trkpt>
      <trkpt lat="43.51451" lon="6.24371">
        <ele>156.8</ele>
        <time>2017-01-15T12:13:42Z</time>
      </trkpt>
      <trkpt lat="43.51459" lon="6.24361">
        <ele>157.1</ele>
        <time>2017-01-15T12:13:48Z</time>
      </trkpt>
      <trkpt lat="43.51467" lon="6.24352">
        <ele>157.5</ele>
        <time>2017-01-15T12:13:52Z</time>
      </trkpt>
      <trkpt lat="43.51473" lon="6.24339">
        <ele>157.6</ele>
        <time>2017-01-15T12:13:55Z</time>
      </trkpt>
      <trkpt lat="43.51476" lon="6.24327">
        <ele>157.8</ele>
        <time>2017-01-15T12:13:59Z</time>
      </trkpt>
      <trkpt lat="43.5148" lon="6.24315">
        <ele>158.7</ele>
        <time>2017-01-15T12:14:05Z</time>
      </trkpt>
      <trkpt lat="43.51487" lon="6.24307">
        <ele>158.6</ele>
        <time>2017-01-15T12:14:30Z</time>
      </trkpt>
      <trkpt lat="43.51496" lon="6.24312">
        <ele>159.9</ele>
        <time>2017-01-15T12:14:41Z</time>
      </trkpt>
      <trkpt lat="43.51505" lon="6.24315">
        <ele>161.8</ele>
        <time>2017-01-15T12:14:53Z</time>
      </trkpt>
      <trkpt lat="43.51512" lon="6.24308">
        <ele>163.8</ele>
        <time>2017-01-15T12:15:09Z</time>
      </trkpt>
      <trkpt lat="43.51519" lon="6.24317">
        <ele>166.8</ele>
        <time>2017-01-15T12:15:25Z</time>
      </trkpt>
      <trkpt lat="43.51523" lon="6.24328">
        <ele>167.2</ele>
        <time>2017-01-15T12:15:32Z</time>
      </trkpt>
      <trkpt lat="43.51529" lon="6.24338">
        <ele>167.9</ele>
        <time>2017-01-15T12:15:47Z</time>
      </trkpt>
      <trkpt lat="43.51532" lon="6.24349">
        <ele>168</ele>
        <time>2017-01-15T12:16:03Z</time>
      </trkpt>
      <trkpt lat="43.51536" lon="6.24361">
        <ele>168.6</ele>
        <time>2017-01-15T12:16:32Z</time>
      </trkpt>
      <trkpt lat="43.51541" lon="6.24371">
        <ele>169.2</ele>
        <time>2017-01-15T12:16:42Z</time>
      </trkpt>
      <trkpt lat="43.51545" lon="6.24359">
        <ele>168.2</ele>
        <time>2017-01-15T12:17:06Z</time>
      </trkpt>
      <trkpt lat="43.51553" lon="6.24353">
        <ele>166.2</ele>
        <time>2017-01-15T12:17:21Z</time>
      </trkpt>
      <trkpt lat="43.51558" lon="6.24364">
        <ele>157.1</ele>
        <time>2017-01-15T12:18:08Z</time>
      </trkpt>
      <trkpt lat="43.51559" lon="6.24377">
        <ele>155.4</ele>
        <time>2017-01-15T12:18:17Z</time>
      </trkpt>
      <trkpt lat="43.51561" lon="6.2439">
        <ele>153.8</ele>
        <time>2017-01-15T12:18:27Z</time>
      </trkpt>
      <trkpt lat="43.51563" lon="6.24403">
        <ele>152.2</ele>
        <time>2017-01-15T12:18:38Z</time>
      </trkpt>
      <trkpt lat="43.51567" lon="6.24416">
        <ele>151.4</ele>
        <time>2017-01-15T12:18:48Z</time>
      </trkpt>
      <trkpt lat="43.51571" lon="6.24427">
        <ele>151.1</ele>
        <time>2017-01-15T12:18:56Z</time>
      </trkpt>
      <trkpt lat="43.51573" lon="6.2444">
        <ele>151</ele>
        <time>2017-01-15T12:19:04Z</time>
      </trkpt>
      <trkpt lat="43.51575" lon="6.24452">
        <ele>150.1</ele>
        <time>2017-01-15T12:19:13Z</time>
      </trkpt>
      <trkpt lat="43.51573" lon="6.24465">
        <ele>149.7</ele>
        <time>2017-01-15T12:19:22Z</time>
      </trkpt>
      <trkpt lat="43.51571" lon="6.24478">
        <ele>150.3</ele>
        <time>2017-01-15T12:19:33Z</time>
      </trkpt>
      <trkpt lat="43.51575" lon="6.24491">
        <ele>151.2</ele>
        <time>2017-01-15T12:19:42Z</time>
      </trkpt>
      <trkpt lat="43.51578" lon="6.24503">
        <ele>151.8</ele>
        <time>2017-01-15T12:19:51Z</time>
      </trkpt>
      <trkpt lat="43.51585" lon="6.24513">
        <ele>152.8</ele>
        <time>2017-01-15T12:20:02Z</time>
      </trkpt>
      <trkpt lat="43.51588" lon="6.24525">
        <ele>154</ele>
        <time>2017-01-15T12:20:13Z</time>
      </trkpt>
      <trkpt lat="43.51588" lon="6.24538">
        <ele>155.3</ele>
        <time>2017-01-15T12:20:24Z</time>
      </trkpt>
      <trkpt lat="43.51588" lon="6.24552">
        <ele>157.2</ele>
        <time>2017-01-15T12:20:38Z</time>
      </trkpt>
      <trkpt lat="43.51589" lon="6.24564">
        <ele>158.7</ele>
        <time>2017-01-15T12:20:49Z</time>
      </trkpt>
      <trkpt lat="43.51591" lon="6.24576">
        <ele>162</ele>
        <time>2017-01-15T12:21:50Z</time>
      </trkpt>
      <trkpt lat="43.51599" lon="6.24582">
        <ele>161.9</ele>
        <time>2017-01-15T12:22:35Z</time>
      </trkpt>
      <trkpt lat="43.516" lon="6.24596">
        <ele>162.8</ele>
        <time>2017-01-15T12:22:49Z</time>
      </trkpt>
      <trkpt lat="43.51598" lon="6.24609">
        <ele>163.9</ele>
        <time>2017-01-15T12:22:59Z</time>
      </trkpt>
      <trkpt lat="43.51599" lon="6.24622">
        <ele>164.7</ele>
        <time>2017-01-15T12:23:09Z</time>
      </trkpt>
      <trkpt lat="43.51599" lon="6.24635">
        <ele>165.8</ele>
        <time>2017-01-15T12:23:23Z</time>
      </trkpt>
      <trkpt lat="43.51601" lon="6.24648">
        <ele>167.5</ele>
        <time>2017-01-15T12:23:34Z</time>
      </trkpt>
      <trkpt lat="43.51599" lon="6.24661">
        <ele>168.5</ele>
        <time>2017-01-15T12:23:43Z</time>
      </trkpt>
      <trkpt lat="43.51597" lon="6.24674">
        <ele>169.7</ele>
        <time>2017-01-15T12:23:53Z</time>
      </trkpt>
      <trkpt lat="43.51597" lon="6.24687">
        <ele>170.9</ele>
        <time>2017-01-15T12:24:03Z</time>
      </trkpt>
      <trkpt lat="43.51597" lon="6.247">
        <ele>172</ele>
        <time>2017-01-15T12:24:12Z</time>
      </trkpt>
      <trkpt lat="43.51596" lon="6.24713">
        <ele>173.3</ele>
        <time>2017-01-15T12:24:22Z</time>
      </trkpt>
      <trkpt lat="43.51595" lon="6.24725">
        <ele>174.3</ele>
        <time>2017-01-15T12:24:31Z</time>
      </trkpt>
      <trkpt lat="43.51593" lon="6.24738">
        <ele>175.6</ele>
        <time>2017-01-15T12:24:41Z</time>
      </trkpt>
      <trkpt lat="43.51593" lon="6.24752">
        <ele>177.2</ele>
        <time>2017-01-15T12:24:50Z</time>
      </trkpt>
      <trkpt lat="43.51591" lon="6.24765">
        <ele>178.5</ele>
        <time>2017-01-15T12:25:00Z</time>
      </trkpt>
      <trkpt lat="43.5159" lon="6.24778">
        <ele>179.2</ele>
        <time>2017-01-15T12:25:09Z</time>
      </trkpt>
      <trkpt lat="43.51592" lon="6.24792">
        <ele>180.4</ele>
        <time>2017-01-15T12:25:18Z</time>
      </trkpt>
      <trkpt lat="43.51591" lon="6.24806">
        <ele>181.4</ele>
        <time>2017-01-15T12:25:27Z</time>
      </trkpt>
      <trkpt lat="43.51587" lon="6.24817">
        <ele>182.6</ele>
        <time>2017-01-15T12:25:37Z</time>
      </trkpt>
      <trkpt lat="43.51585" lon="6.24804">
        <ele>184.7</ele>
        <time>2017-01-15T12:25:59Z</time>
      </trkpt>
      <trkpt lat="43.5158" lon="6.24794">
        <ele>186.1</ele>
        <time>2017-01-15T12:26:13Z</time>
      </trkpt>
      <trkpt lat="43.5157" lon="6.24795">
        <ele>187.1</ele>
        <time>2017-01-15T12:26:23Z</time>
      </trkpt>
      <trkpt lat="43.51562" lon="6.24801">
        <ele>188.4</ele>
        <time>2017-01-15T12:26:32Z</time>
      </trkpt>
      <trkpt lat="43.51555" lon="6.24809">
        <ele>189.3</ele>
        <time>2017-01-15T12:26:43Z</time>
      </trkpt>
      <trkpt lat="43.51552" lon="6.24821">
        <ele>190.6</ele>
        <time>2017-01-15T12:26:54Z</time>
      </trkpt>
      <trkpt lat="43.51548" lon="6.24833">
        <ele>191.9</ele>
        <time>2017-01-15T12:27:06Z</time>
      </trkpt>
      <trkpt lat="43.51547" lon="6.24846">
        <ele>193.3</ele>
        <time>2017-01-15T12:27:18Z</time>
      </trkpt>
      <trkpt lat="43.51549" lon="6.24859">
        <ele>194.7</ele>
        <time>2017-01-15T12:27:31Z</time>
      </trkpt>
      <trkpt lat="43.51552" lon="6.24872">
        <ele>195.7</ele>
        <time>2017-01-15T12:27:40Z</time>
      </trkpt>
      <trkpt lat="43.51555" lon="6.24884">
        <ele>196.7</ele>
        <time>2017-01-15T12:27:51Z</time>
      </trkpt>
      <trkpt lat="43.51558" lon="6.24897">
        <ele>197.7</ele>
        <time>2017-01-15T12:28:00Z</time>
      </trkpt>
      <trkpt lat="43.51559" lon="6.2491">
        <ele>198.4</ele>
        <time>2017-01-15T12:28:08Z</time>
      </trkpt>
      <trkpt lat="43.51559" lon="6.24923">
        <ele>199.6</ele>
        <time>2017-01-15T12:28:17Z</time>
      </trkpt>
      <trkpt lat="43.51559" lon="6.24935">
        <ele>200.7</ele>
        <time>2017-01-15T12:28:29Z</time>
      </trkpt>
      <trkpt lat="43.51558" lon="6.24948">
        <ele>201.8</ele>
        <time>2017-01-15T12:28:41Z</time>
      </trkpt>
      <trkpt lat="43.51555" lon="6.2496">
        <ele>202.8</ele>
        <time>2017-01-15T12:28:51Z</time>
      </trkpt>
      <trkpt lat="43.51551" lon="6.24973">
        <ele>204</ele>
        <time>2017-01-15T12:29:02Z</time>
      </trkpt>
      <trkpt lat="43.51547" lon="6.24985">
        <ele>205</ele>
        <time>2017-01-15T12:29:14Z</time>
      </trkpt>
      <trkpt lat="43.51547" lon="6.24998">
        <ele>205.7</ele>
        <time>2017-01-15T12:29:23Z</time>
      </trkpt>
      <trkpt lat="43.51546" lon="6.25012">
        <ele>206.1</ele>
        <time>2017-01-15T12:29:32Z</time>
      </trkpt>
      <trkpt lat="43.51543" lon="6.25024">
        <ele>206.3</ele>
        <time>2017-01-15T12:29:42Z</time>
      </trkpt>
      <trkpt lat="43.51539" lon="6.25036">
        <ele>207</ele>
        <time>2017-01-15T12:29:52Z</time>
      </trkpt>
      <trkpt lat="43.51537" lon="6.25049">
        <ele>207.8</ele>
        <time>2017-01-15T12:30:03Z</time>
      </trkpt>
      <trkpt lat="43.51536" lon="6.25062">
        <ele>208.7</ele>
        <time>2017-01-15T12:30:14Z</time>
      </trkpt>
      <trkpt lat="43.51533" lon="6.25074">
        <ele>209.7</ele>
        <time>2017-01-15T12:30:25Z</time>
      </trkpt>
      <trkpt lat="43.51535" lon="6.25087">
        <ele>210.5</ele>
        <time>2017-01-15T12:30:36Z</time>
      </trkpt>
      <trkpt lat="43.51542" lon="6.25096">
        <ele>211.2</ele>
        <time>2017-01-15T12:30:49Z</time>
      </trkpt>
      <trkpt lat="43.51551" lon="6.25099">
        <ele>211.8</ele>
        <time>2017-01-15T12:30:58Z</time>
      </trkpt>
      <trkpt lat="43.51561" lon="6.25099">
        <ele>212.4</ele>
        <time>2017-01-15T12:31:08Z</time>
      </trkpt>
      <trkpt lat="43.5157" lon="6.25098">
        <ele>213</ele>
        <time>2017-01-15T12:31:19Z</time>
      </trkpt>
      <trkpt lat="43.51579" lon="6.25099">
        <ele>213.8</ele>
        <time>2017-01-15T12:31:29Z</time>
      </trkpt>
      <trkpt lat="43.51588" lon="6.25106">
        <ele>215</ele>
        <time>2017-01-15T12:31:42Z</time>
      </trkpt>
      <trkpt lat="43.51596" lon="6.25114">
        <ele>215.9</ele>
        <time>2017-01-15T12:31:51Z</time>
      </trkpt>
      <trkpt lat="43.51605" lon="6.25121">
        <ele>216.5</ele>
        <time>2017-01-15T12:32:00Z</time>
      </trkpt>
      <trkpt lat="43.51614" lon="6.25127">
        <ele>217.8</ele>
        <time>2017-01-15T12:32:10Z</time>
      </trkpt>
      <trkpt lat="43.51621" lon="6.25135">
        <ele>218.5</ele>
        <time>2017-01-15T12:32:21Z</time>
      </trkpt>
      <trkpt lat="43.51626" lon="6.25147">
        <ele>219.4</ele>
        <time>2017-01-15T12:32:32Z</time>
      </trkpt>
      <trkpt lat="43.51629" lon="6.25159">
        <ele>220.7</ele>
        <time>2017-01-15T12:32:44Z</time>
      </trkpt>
      <trkpt lat="43.51632" lon="6.25172">
        <ele>221.9</ele>
        <time>2017-01-15T12:32:57Z</time>
      </trkpt>
      <trkpt lat="43.51631" lon="6.25185">
        <ele>223</ele>
        <time>2017-01-15T12:33:09Z</time>
      </trkpt>
      <trkpt lat="43.51635" lon="6.25196">
        <ele>224</ele>
        <time>2017-01-15T12:33:18Z</time>
      </trkpt>
      <trkpt lat="43.51639" lon="6.25209">
        <ele>225.2</ele>
        <time>2017-01-15T12:33:26Z</time>
      </trkpt>
      <trkpt lat="43.51639" lon="6.25222">
        <ele>225.7</ele>
        <time>2017-01-15T12:33:36Z</time>
      </trkpt>
      <trkpt lat="43.51639" lon="6.25234">
        <ele>226.4</ele>
        <time>2017-01-15T12:33:48Z</time>
      </trkpt>
      <trkpt lat="43.51639" lon="6.25247">
        <ele>227.3</ele>
        <time>2017-01-15T12:33:59Z</time>
      </trkpt>
      <trkpt lat="43.5164" lon="6.2526">
        <ele>228.5</ele>
        <time>2017-01-15T12:34:12Z</time>
      </trkpt>
      <trkpt lat="43.51641" lon="6.25275">
        <ele>229.1</ele>
        <time>2017-01-15T12:34:20Z</time>
      </trkpt>
      <trkpt lat="43.51639" lon="6.25287">
        <ele>230</ele>
        <time>2017-01-15T12:34:32Z</time>
      </trkpt>
      <trkpt lat="43.51637" lon="6.253">
        <ele>231</ele>
        <time>2017-01-15T12:34:42Z</time>
      </trkpt>
      <trkpt lat="43.51632" lon="6.25311">
        <ele>232.6</ele>
        <time>2017-01-15T12:34:53Z</time>
      </trkpt>
      <trkpt lat="43.51631" lon="6.25325">
        <ele>233.8</ele>
        <time>2017-01-15T12:35:04Z</time>
      </trkpt>
      <trkpt lat="43.51629" lon="6.25338">
        <ele>234.4</ele>
        <time>2017-01-15T12:35:12Z</time>
      </trkpt>
      <trkpt lat="43.51625" lon="6.25349">
        <ele>235</ele>
        <time>2017-01-15T12:35:20Z</time>
      </trkpt>
      <trkpt lat="43.51621" lon="6.25362">
        <ele>235.7</ele>
        <time>2017-01-15T12:35:32Z</time>
      </trkpt>
      <trkpt lat="43.51619" lon="6.25374">
        <ele>236.4</ele>
        <time>2017-01-15T12:35:43Z</time>
      </trkpt>
      <trkpt lat="43.51614" lon="6.25386">
        <ele>237</ele>
        <time>2017-01-15T12:35:52Z</time>
      </trkpt>
      <trkpt lat="43.51609" lon="6.25396">
        <ele>237.4</ele>
        <time>2017-01-15T12:35:59Z</time>
      </trkpt>
      <trkpt lat="43.516" lon="6.25404">
        <ele>238.3</ele>
        <time>2017-01-15T12:36:10Z</time>
      </trkpt>
      <trkpt lat="43.51595" lon="6.25415">
        <ele>239.3</ele>
        <time>2017-01-15T12:36:21Z</time>
      </trkpt>
      <trkpt lat="43.51592" lon="6.25428">
        <ele>239.9</ele>
        <time>2017-01-15T12:36:29Z</time>
      </trkpt>
      <trkpt lat="43.51591" lon="6.25442">
        <ele>240.5</ele>
        <time>2017-01-15T12:36:35Z</time>
      </trkpt>
      <trkpt lat="43.5159" lon="6.25456">
        <ele>241.2</ele>
        <time>2017-01-15T12:36:45Z</time>
      </trkpt>
      <trkpt lat="43.5159" lon="6.25468">
        <ele>241.7</ele>
        <time>2017-01-15T12:36:52Z</time>
      </trkpt>
      <trkpt lat="43.51587" lon="6.25481">
        <ele>242.1</ele>
        <time>2017-01-15T12:37:01Z</time>
      </trkpt>
      <trkpt lat="43.51586" lon="6.25493">
        <ele>242.6</ele>
        <time>2017-01-15T12:37:10Z</time>
      </trkpt>
      <trkpt lat="43.51586" lon="6.25507">
        <ele>243.3</ele>
        <time>2017-01-15T12:37:18Z</time>
      </trkpt>
      <trkpt lat="43.51586" lon="6.25519">
        <ele>244.4</ele>
        <time>2017-01-15T12:37:28Z</time>
      </trkpt>
      <trkpt lat="43.51583" lon="6.25531">
        <ele>245.1</ele>
        <time>2017-01-15T12:37:39Z</time>
      </trkpt>
      <trkpt lat="43.51579" lon="6.25544">
        <ele>245.5</ele>
        <time>2017-01-15T12:37:48Z</time>
      </trkpt>
      <trkpt lat="43.51579" lon="6.25557">
        <ele>246.4</ele>
        <time>2017-01-15T12:38:01Z</time>
      </trkpt>
      <trkpt lat="43.51576" lon="6.25569">
        <ele>247.3</ele>
        <time>2017-01-15T12:38:12Z</time>
      </trkpt>
      <trkpt lat="43.51573" lon="6.25582">
        <ele>247.8</ele>
        <time>2017-01-15T12:38:21Z</time>
      </trkpt>
      <trkpt lat="43.51567" lon="6.25591">
        <ele>248.1</ele>
        <time>2017-01-15T12:38:27Z</time>
      </trkpt>
      <trkpt lat="43.51565" lon="6.25604">
        <ele>248.6</ele>
        <time>2017-01-15T12:38:35Z</time>
      </trkpt>
      <trkpt lat="43.51563" lon="6.25617">
        <ele>248.9</ele>
        <time>2017-01-15T12:38:42Z</time>
      </trkpt>
      <trkpt lat="43.51562" lon="6.2563">
        <ele>249.4</ele>
        <time>2017-01-15T12:38:51Z</time>
      </trkpt>
      <trkpt lat="43.51563" lon="6.25643">
        <ele>249.9</ele>
        <time>2017-01-15T12:38:59Z</time>
      </trkpt>
      <trkpt lat="43.51565" lon="6.25656">
        <ele>250.3</ele>
        <time>2017-01-15T12:39:07Z</time>
      </trkpt>
      <trkpt lat="43.51567" lon="6.2567">
        <ele>250.7</ele>
        <time>2017-01-15T12:39:14Z</time>
      </trkpt>
      <trkpt lat="43.51569" lon="6.25683">
        <ele>251.3</ele>
        <time>2017-01-15T12:39:23Z</time>
      </trkpt>
      <trkpt lat="43.51574" lon="6.25695">
        <ele>251.7</ele>
        <time>2017-01-15T12:39:32Z</time>
      </trkpt>
      <trkpt lat="43.51578" lon="6.25707">
        <ele>252.3</ele>
        <time>2017-01-15T12:39:41Z</time>
      </trkpt>
      <trkpt lat="43.51581" lon="6.25718">
        <ele>252.6</ele>
        <time>2017-01-15T12:39:51Z</time>
      </trkpt>
      <trkpt lat="43.51582" lon="6.25732">
        <ele>253.1</ele>
        <time>2017-01-15T12:40:03Z</time>
      </trkpt>
      <trkpt lat="43.51581" lon="6.25746">
        <ele>253.6</ele>
        <time>2017-01-15T12:40:13Z</time>
      </trkpt>
      <trkpt lat="43.51585" lon="6.25757">
        <ele>254</ele>
        <time>2017-01-15T12:40:21Z</time>
      </trkpt>
      <trkpt lat="43.51589" lon="6.25769">
        <ele>254.3</ele>
        <time>2017-01-15T12:40:30Z</time>
      </trkpt>
      <trkpt lat="43.51591" lon="6.25782">
        <ele>254.8</ele>
        <time>2017-01-15T12:40:38Z</time>
      </trkpt>
      <trkpt lat="43.51591" lon="6.25795">
        <ele>255.7</ele>
        <time>2017-01-15T12:40:47Z</time>
      </trkpt>
      <trkpt lat="43.51592" lon="6.25808">
        <ele>256.5</ele>
        <time>2017-01-15T12:40:57Z</time>
      </trkpt>
      <trkpt lat="43.51593" lon="6.25821">
        <ele>257</ele>
        <time>2017-01-15T12:41:06Z</time>
      </trkpt>
      <trkpt lat="43.51591" lon="6.25835">
        <ele>257.7</ele>
        <time>2017-01-15T12:41:16Z</time>
      </trkpt>
      <trkpt lat="43.51593" lon="6.25847">
        <ele>258.7</ele>
        <time>2017-01-15T12:41:24Z</time>
      </trkpt>
      <trkpt lat="43.51596" lon="6.25861">
        <ele>259.3</ele>
        <time>2017-01-15T12:41:32Z</time>
      </trkpt>
      <trkpt lat="43.51597" lon="6.25874">
        <ele>260.3</ele>
        <time>2017-01-15T12:41:46Z</time>
      </trkpt>
      <trkpt lat="43.51602" lon="6.25884">
        <ele>260.9</ele>
        <time>2017-01-15T12:41:59Z</time>
      </trkpt>
      <trkpt lat="43.51605" lon="6.25897">
        <ele>261.5</ele>
        <time>2017-01-15T12:42:13Z</time>
      </trkpt>
      <trkpt lat="43.5161" lon="6.25907">
        <ele>261.9</ele>
        <time>2017-01-15T12:42:21Z</time>
      </trkpt>
      <trkpt lat="43.51617" lon="6.25915">
        <ele>262.7</ele>
        <time>2017-01-15T12:42:31Z</time>
      </trkpt>
      <trkpt lat="43.51625" lon="6.25922">
        <ele>263.8</ele>
        <time>2017-01-15T12:42:40Z</time>
      </trkpt>
      <trkpt lat="43.51628" lon="6.25934">
        <ele>265.1</ele>
        <time>2017-01-15T12:42:55Z</time>
      </trkpt>
      <trkpt lat="43.51624" lon="6.25945">
        <ele>266.1</ele>
        <time>2017-01-15T12:43:10Z</time>
      </trkpt>
      <trkpt lat="43.51624" lon="6.25959">
        <ele>267.1</ele>
        <time>2017-01-15T12:43:22Z</time>
      </trkpt>
      <trkpt lat="43.51623" lon="6.25972">
        <ele>268.1</ele>
        <time>2017-01-15T12:43:34Z</time>
      </trkpt>
      <trkpt lat="43.51623" lon="6.25984">
        <ele>269.8</ele>
        <time>2017-01-15T12:44:14Z</time>
      </trkpt>
      <trkpt lat="43.51631" lon="6.25991">
        <ele>270.4</ele>
        <time>2017-01-15T12:44:37Z</time>
      </trkpt>
      <trkpt lat="43.51622" lon="6.25991">
        <ele>270.3</ele>
        <time>2017-01-15T12:45:49Z</time>
      </trkpt>
      <trkpt lat="43.51616" lon="6.25981">
        <ele>270.3</ele>
        <time>2017-01-15T12:46:01Z</time>
      </trkpt>
      <trkpt lat="43.51609" lon="6.25973">
        <ele>270.2</ele>
        <time>2017-01-15T12:46:12Z</time>
      </trkpt>
      <trkpt lat="43.51602" lon="6.25963">
        <ele>270.2</ele>
        <time>2017-01-15T12:46:20Z</time>
      </trkpt>
      <trkpt lat="43.51597" lon="6.25952">
        <ele>269.9</ele>
        <time>2017-01-15T12:46:30Z</time>
      </trkpt>
      <trkpt lat="43.51593" lon="6.25941">
        <ele>269.7</ele>
        <time>2017-01-15T12:46:42Z</time>
      </trkpt>
      <trkpt lat="43.51589" lon="6.25929">
        <ele>269.6</ele>
        <time>2017-01-15T12:46:50Z</time>
      </trkpt>
      <trkpt lat="43.51585" lon="6.25917">
        <ele>269.5</ele>
        <time>2017-01-15T12:47:00Z</time>
      </trkpt>
      <trkpt lat="43.5158" lon="6.25905">
        <ele>269.4</ele>
        <time>2017-01-15T12:47:10Z</time>
      </trkpt>
      <trkpt lat="43.51578" lon="6.25893">
        <ele>269.4</ele>
        <time>2017-01-15T12:47:19Z</time>
      </trkpt>
      <trkpt lat="43.51575" lon="6.2588">
        <ele>269.4</ele>
        <time>2017-01-15T12:47:30Z</time>
      </trkpt>
      <trkpt lat="43.5157" lon="6.25869">
        <ele>269.4</ele>
        <time>2017-01-15T12:47:37Z</time>
      </trkpt>
      <trkpt lat="43.51565" lon="6.25857">
        <ele>269.3</ele>
        <time>2017-01-15T12:47:48Z</time>
      </trkpt>
      <trkpt lat="43.51559" lon="6.25845">
        <ele>269.2</ele>
        <time>2017-01-15T12:47:57Z</time>
      </trkpt>
      <trkpt lat="43.51557" lon="6.25833">
        <ele>268.9</ele>
        <time>2017-01-15T12:48:05Z</time>
      </trkpt>
      <trkpt lat="43.51555" lon="6.2582">
        <ele>268.7</ele>
        <time>2017-01-15T12:48:13Z</time>
      </trkpt>
      <trkpt lat="43.51549" lon="6.2581">
        <ele>268.3</ele>
        <time>2017-01-15T12:48:20Z</time>
      </trkpt>
      <trkpt lat="43.51544" lon="6.25798">
        <ele>268.2</ele>
        <time>2017-01-15T12:48:25Z</time>
      </trkpt>
      <trkpt lat="43.51537" lon="6.2579">
        <ele>268.1</ele>
        <time>2017-01-15T12:48:30Z</time>
      </trkpt>
      <trkpt lat="43.51529" lon="6.25796">
        <ele>268.1</ele>
        <time>2017-01-15T12:48:37Z</time>
      </trkpt>
      <trkpt lat="43.51525" lon="6.25809">
        <ele>268.4</ele>
        <time>2017-01-15T12:48:44Z</time>
      </trkpt>
      <trkpt lat="43.51524" lon="6.25822">
        <ele>268.8</ele>
        <time>2017-01-15T12:48:53Z</time>
      </trkpt>
      <trkpt lat="43.51521" lon="6.25833">
        <ele>269.1</ele>
        <time>2017-01-15T12:48:59Z</time>
      </trkpt>
      <trkpt lat="43.51518" lon="6.25846">
        <ele>269.5</ele>
        <time>2017-01-15T12:49:06Z</time>
      </trkpt>
      <trkpt lat="43.51515" lon="6.25859">
        <ele>270.1</ele>
        <time>2017-01-15T12:49:15Z</time>
      </trkpt>
      <trkpt lat="43.51513" lon="6.25872">
        <ele>271.2</ele>
        <time>2017-01-15T12:49:25Z</time>
      </trkpt>
      <trkpt lat="43.51512" lon="6.25885">
        <ele>272.2</ele>
        <time>2017-01-15T12:49:34Z</time>
      </trkpt>
      <trkpt lat="43.5151" lon="6.25897">
        <ele>273</ele>
        <time>2017-01-15T12:49:42Z</time>
      </trkpt>
      <trkpt lat="43.51505" lon="6.25909">
        <ele>273.8</ele>
        <time>2017-01-15T12:49:51Z</time>
      </trkpt>
      <trkpt lat="43.51501" lon="6.25921">
        <ele>274.4</ele>
        <time>2017-01-15T12:49:59Z</time>
      </trkpt>
      <trkpt lat="43.51499" lon="6.25933">
        <ele>274.9</ele>
        <time>2017-01-15T12:50:09Z</time>
      </trkpt>
      <trkpt lat="43.51495" lon="6.25945">
        <ele>275.4</ele>
        <time>2017-01-15T12:50:19Z</time>
      </trkpt>
      <trkpt lat="43.51493" lon="6.25958">
        <ele>275.8</ele>
        <time>2017-01-15T12:50:27Z</time>
      </trkpt>
      <trkpt lat="43.51494" lon="6.2597">
        <ele>276.1</ele>
        <time>2017-01-15T12:50:34Z</time>
      </trkpt>
      <trkpt lat="43.51495" lon="6.25984">
        <ele>276.7</ele>
        <time>2017-01-15T12:50:42Z</time>
      </trkpt>
      <trkpt lat="43.51495" lon="6.25997">
        <ele>277</ele>
        <time>2017-01-15T12:50:49Z</time>
      </trkpt>
      <trkpt lat="43.51493" lon="6.2601">
        <ele>277.3</ele>
        <time>2017-01-15T12:50:58Z</time>
      </trkpt>
      <trkpt lat="43.51494" lon="6.26022">
        <ele>277.5</ele>
        <time>2017-01-15T12:51:06Z</time>
      </trkpt>
      <trkpt lat="43.51493" lon="6.26035">
        <ele>277.7</ele>
        <time>2017-01-15T12:51:13Z</time>
      </trkpt>
      <trkpt lat="43.51491" lon="6.26048">
        <ele>277.8</ele>
        <time>2017-01-15T12:51:22Z</time>
      </trkpt>
      <trkpt lat="43.5149" lon="6.26061">
        <ele>278</ele>
        <time>2017-01-15T12:51:31Z</time>
      </trkpt>
      <trkpt lat="43.51491" lon="6.26074">
        <ele>278.2</ele>
        <time>2017-01-15T12:51:40Z</time>
      </trkpt>
      <trkpt lat="43.51488" lon="6.26087">
        <ele>278.3</ele>
        <time>2017-01-15T12:51:49Z</time>
      </trkpt>
      <trkpt lat="43.51487" lon="6.26101">
        <ele>278.5</ele>
        <time>2017-01-15T12:51:58Z</time>
      </trkpt>
      <trkpt lat="43.51488" lon="6.26114">
        <ele>278.6</ele>
        <time>2017-01-15T12:52:06Z</time>
      </trkpt>
      <trkpt lat="43.51487" lon="6.26127">
        <ele>278.7</ele>
        <time>2017-01-15T12:52:15Z</time>
      </trkpt>
      <trkpt lat="43.51486" lon="6.2614">
        <ele>278.8</ele>
        <time>2017-01-15T12:52:24Z</time>
      </trkpt>
      <trkpt lat="43.51486" lon="6.26153">
        <ele>278.5</ele>
        <time>2017-01-15T12:52:34Z</time>
      </trkpt>
      <trkpt lat="43.51485" lon="6.26166">
        <ele>278.3</ele>
        <time>2017-01-15T12:52:44Z</time>
      </trkpt>
      <trkpt lat="43.51484" lon="6.2618">
        <ele>277.8</ele>
        <time>2017-01-15T12:52:53Z</time>
      </trkpt>
      <trkpt lat="43.51486" lon="6.26195">
        <ele>277.3</ele>
        <time>2017-01-15T12:53:04Z</time>
      </trkpt>
      <trkpt lat="43.51483" lon="6.26208">
        <ele>276.8</ele>
        <time>2017-01-15T12:53:12Z</time>
      </trkpt>
      <trkpt lat="43.51483" lon="6.26222">
        <ele>275.8</ele>
        <time>2017-01-15T12:53:23Z</time>
      </trkpt>
      <trkpt lat="43.51479" lon="6.26235">
        <ele>275.1</ele>
        <time>2017-01-15T12:53:31Z</time>
      </trkpt>
      <trkpt lat="43.51479" lon="6.26247">
        <ele>274.4</ele>
        <time>2017-01-15T12:53:41Z</time>
      </trkpt>
      <trkpt lat="43.51479" lon="6.26261">
        <ele>273.6</ele>
        <time>2017-01-15T12:53:52Z</time>
      </trkpt>
      <trkpt lat="43.51478" lon="6.26274">
        <ele>272.8</ele>
        <time>2017-01-15T12:54:01Z</time>
      </trkpt>
      <trkpt lat="43.51477" lon="6.26287">
        <ele>272.1</ele>
        <time>2017-01-15T12:54:10Z</time>
      </trkpt>
      <trkpt lat="43.51476" lon="6.263">
        <ele>271.2</ele>
        <time>2017-01-15T12:54:17Z</time>
      </trkpt>
      <trkpt lat="43.51473" lon="6.26312">
        <ele>270.3</ele>
        <time>2017-01-15T12:54:25Z</time>
      </trkpt>
      <trkpt lat="43.51471" lon="6.26324">
        <ele>269.5</ele>
        <time>2017-01-15T12:54:32Z</time>
      </trkpt>
      <trkpt lat="43.51475" lon="6.26338">
        <ele>267.8</ele>
        <time>2017-01-15T12:54:42Z</time>
      </trkpt>
      <trkpt lat="43.51477" lon="6.2635">
        <ele>266.4</ele>
        <time>2017-01-15T12:54:51Z</time>
      </trkpt>
      <trkpt lat="43.51478" lon="6.26362">
        <ele>264.8</ele>
        <time>2017-01-15T12:55:00Z</time>
      </trkpt>
      <trkpt lat="43.51476" lon="6.26376">
        <ele>263.1</ele>
        <time>2017-01-15T12:55:12Z</time>
      </trkpt>
      <trkpt lat="43.51472" lon="6.26387">
        <ele>261.4</ele>
        <time>2017-01-15T12:55:26Z</time>
      </trkpt>
      <trkpt lat="43.51469" lon="6.264">
        <ele>258.5</ele>
        <time>2017-01-15T12:56:46Z</time>
      </trkpt>
      <trkpt lat="43.51462" lon="6.26409">
        <ele>257.9</ele>
        <time>2017-01-15T12:56:58Z</time>
      </trkpt>
      <trkpt lat="43.51457" lon="6.2642">
        <ele>257.5</ele>
        <time>2017-01-15T12:57:13Z</time>
      </trkpt>
      <trkpt lat="43.51452" lon="6.2643">
        <ele>256.2</ele>
        <time>2017-01-15T12:57:28Z</time>
      </trkpt>
      <trkpt lat="43.51447" lon="6.26441">
        <ele>255.2</ele>
        <time>2017-01-15T12:57:40Z</time>
      </trkpt>
      <trkpt lat="43.51441" lon="6.2645">
        <ele>253.8</ele>
        <time>2017-01-15T12:57:53Z</time>
      </trkpt>
      <trkpt lat="43.51434" lon="6.26459">
        <ele>253.1</ele>
        <time>2017-01-15T12:58:05Z</time>
      </trkpt>
      <trkpt lat="43.51426" lon="6.26466">
        <ele>252.2</ele>
        <time>2017-01-15T12:58:14Z</time>
      </trkpt>
      <trkpt lat="43.51417" lon="6.26471">
        <ele>251.3</ele>
        <time>2017-01-15T12:58:30Z</time>
      </trkpt>
      <trkpt lat="43.51411" lon="6.26482">
        <ele>250.6</ele>
        <time>2017-01-15T12:58:42Z</time>
      </trkpt>
      <trkpt lat="43.51404" lon="6.2649">
        <ele>250.3</ele>
        <time>2017-01-15T12:58:48Z</time>
      </trkpt>
      <trkpt lat="43.51398" lon="6.26501">
        <ele>249.6</ele>
        <time>2017-01-15T12:59:01Z</time>
      </trkpt>
      <trkpt lat="43.51392" lon="6.26511">
        <ele>249.1</ele>
        <time>2017-01-15T12:59:10Z</time>
      </trkpt>
      <trkpt lat="43.51385" lon="6.26519">
        <ele>248.3</ele>
        <time>2017-01-15T12:59:21Z</time>
      </trkpt>
      <trkpt lat="43.5138" lon="6.26531">
        <ele>247.7</ele>
        <time>2017-01-15T12:59:31Z</time>
      </trkpt>
      <trkpt lat="43.51377" lon="6.26543">
        <ele>247.2</ele>
        <time>2017-01-15T12:59:41Z</time>
      </trkpt>
      <trkpt lat="43.51369" lon="6.2655">
        <ele>246.7</ele>
        <time>2017-01-15T13:00:03Z</time>
      </trkpt>
      <trkpt lat="43.5136" lon="6.26553">
        <ele>246.6</ele>
        <time>2017-01-15T13:00:13Z</time>
      </trkpt>
      <trkpt lat="43.5135" lon="6.26555">
        <ele>246.4</ele>
        <time>2017-01-15T13:00:24Z</time>
      </trkpt>
      <trkpt lat="43.51341" lon="6.26552">
        <ele>246.3</ele>
        <time>2017-01-15T13:00:32Z</time>
      </trkpt>
      <trkpt lat="43.51331" lon="6.26549">
        <ele>246.3</ele>
        <time>2017-01-15T13:00:41Z</time>
      </trkpt>
      <trkpt lat="43.51322" lon="6.26545">
        <ele>246.8</ele>
        <time>2017-01-15T13:00:51Z</time>
      </trkpt>
      <trkpt lat="43.51312" lon="6.26542">
        <ele>247.5</ele>
        <time>2017-01-15T13:01:04Z</time>
      </trkpt>
      <trkpt lat="43.51303" lon="6.26538">
        <ele>248</ele>
        <time>2017-01-15T13:01:14Z</time>
      </trkpt>
      <trkpt lat="43.51294" lon="6.2654">
        <ele>249.1</ele>
        <time>2017-01-15T13:01:25Z</time>
      </trkpt>
      <trkpt lat="43.51284" lon="6.26541">
        <ele>250.2</ele>
        <time>2017-01-15T13:01:35Z</time>
      </trkpt>
      <trkpt lat="43.51275" lon="6.26543">
        <ele>251.4</ele>
        <time>2017-01-15T13:01:45Z</time>
      </trkpt>
      <trkpt lat="43.51265" lon="6.26546">
        <ele>252.6</ele>
        <time>2017-01-15T13:01:56Z</time>
      </trkpt>
      <trkpt lat="43.51256" lon="6.2655">
        <ele>253.5</ele>
        <time>2017-01-15T13:02:05Z</time>
      </trkpt>
      <trkpt lat="43.51247" lon="6.26557">
        <ele>254.8</ele>
        <time>2017-01-15T13:02:16Z</time>
      </trkpt>
      <trkpt lat="43.5124" lon="6.26565">
        <ele>257.1</ele>
        <time>2017-01-15T13:02:32Z</time>
      </trkpt>
      <trkpt lat="43.51233" lon="6.26572">
        <ele>258.9</ele>
        <time>2017-01-15T13:02:46Z</time>
      </trkpt>
      <trkpt lat="43.51225" lon="6.2658">
        <ele>260.3</ele>
        <time>2017-01-15T13:03:01Z</time>
      </trkpt>
      <trkpt lat="43.51215" lon="6.26582">
        <ele>261</ele>
        <time>2017-01-15T13:03:10Z</time>
      </trkpt>
      <trkpt lat="43.51207" lon="6.26585">
        <ele>261.7</ele>
        <time>2017-01-15T13:03:17Z</time>
      </trkpt>
      <trkpt lat="43.51197" lon="6.26589">
        <ele>262.4</ele>
        <time>2017-01-15T13:03:27Z</time>
      </trkpt>
      <trkpt lat="43.51188" lon="6.26593">
        <ele>262.9</ele>
        <time>2017-01-15T13:03:39Z</time>
      </trkpt>
      <trkpt lat="43.51181" lon="6.26601">
        <ele>263.6</ele>
        <time>2017-01-15T13:03:52Z</time>
      </trkpt>
      <trkpt lat="43.51173" lon="6.26609">
        <ele>264</ele>
        <time>2017-01-15T13:04:03Z</time>
      </trkpt>
      <trkpt lat="43.51166" lon="6.26617">
        <ele>264.5</ele>
        <time>2017-01-15T13:04:15Z</time>
      </trkpt>
      <trkpt lat="43.51161" lon="6.26628">
        <ele>265.2</ele>
        <time>2017-01-15T13:04:29Z</time>
      </trkpt>
      <trkpt lat="43.51155" lon="6.26638">
        <ele>266.1</ele>
        <time>2017-01-15T13:04:38Z</time>
      </trkpt>
      <trkpt lat="43.51147" lon="6.26645">
        <ele>266.5</ele>
        <time>2017-01-15T13:04:46Z</time>
      </trkpt>
      <trkpt lat="43.51141" lon="6.26655">
        <ele>266.9</ele>
        <time>2017-01-15T13:04:58Z</time>
      </trkpt>
      <trkpt lat="43.51135" lon="6.26665">
        <ele>267.5</ele>
        <time>2017-01-15T13:05:09Z</time>
      </trkpt>
      <trkpt lat="43.51129" lon="6.26676">
        <ele>267.9</ele>
        <time>2017-01-15T13:05:19Z</time>
      </trkpt>
      <trkpt lat="43.51122" lon="6.26684">
        <ele>268.2</ele>
        <time>2017-01-15T13:05:27Z</time>
      </trkpt>
      <trkpt lat="43.51117" lon="6.26696">
        <ele>269</ele>
        <time>2017-01-15T13:05:36Z</time>
      </trkpt>
      <trkpt lat="43.51114" lon="6.26708">
        <ele>269.4</ele>
        <time>2017-01-15T13:05:45Z</time>
      </trkpt>
      <trkpt lat="43.51111" lon="6.2672">
        <ele>270</ele>
        <time>2017-01-15T13:05:53Z</time>
      </trkpt>
      <trkpt lat="43.51108" lon="6.26734">
        <ele>270.6</ele>
        <time>2017-01-15T13:06:01Z</time>
      </trkpt>
      <trkpt lat="43.51107" lon="6.26747">
        <ele>271.3</ele>
        <time>2017-01-15T13:06:11Z</time>
      </trkpt>
      <trkpt lat="43.51103" lon="6.26761">
        <ele>271.9</ele>
        <time>2017-01-15T13:06:22Z</time>
      </trkpt>
      <trkpt lat="43.51098" lon="6.26771">
        <ele>272.9</ele>
        <time>2017-01-15T13:06:34Z</time>
      </trkpt>
      <trkpt lat="43.51097" lon="6.26784">
        <ele>273.5</ele>
        <time>2017-01-15T13:06:43Z</time>
      </trkpt>
      <trkpt lat="43.51092" lon="6.26795">
        <ele>274.2</ele>
        <time>2017-01-15T13:06:53Z</time>
      </trkpt>
      <trkpt lat="43.51089" lon="6.26807">
        <ele>275.1</ele>
        <time>2017-01-15T13:07:04Z</time>
      </trkpt>
      <trkpt lat="43.51088" lon="6.26819">
        <ele>276.1</ele>
        <time>2017-01-15T13:07:20Z</time>
      </trkpt>
      <trkpt lat="43.51088" lon="6.26832">
        <ele>277.7</ele>
        <time>2017-01-15T13:10:26Z</time>
      </trkpt>
      <trkpt lat="43.51083" lon="6.26842">
        <ele>278.6</ele>
        <time>2017-01-15T13:11:05Z</time>
      </trkpt>
      <trkpt lat="43.51076" lon="6.2685">
        <ele>279.1</ele>
        <time>2017-01-15T13:11:20Z</time>
      </trkpt>
      <trkpt lat="43.5107" lon="6.2686">
        <ele>279.4</ele>
        <time>2017-01-15T13:11:29Z</time>
      </trkpt>
      <trkpt lat="43.51063" lon="6.26869">
        <ele>279.4</ele>
        <time>2017-01-15T13:11:37Z</time>
      </trkpt>
      <trkpt lat="43.51056" lon="6.26879">
        <ele>279.4</ele>
        <time>2017-01-15T13:11:46Z</time>
      </trkpt>
      <trkpt lat="43.51051" lon="6.2689">
        <ele>279.3</ele>
        <time>2017-01-15T13:11:56Z</time>
      </trkpt>
      <trkpt lat="43.51047" lon="6.26901">
        <ele>279.2</ele>
        <time>2017-01-15T13:12:07Z</time>
      </trkpt>
      <trkpt lat="43.51042" lon="6.26912">
        <ele>279.2</ele>
        <time>2017-01-15T13:12:15Z</time>
      </trkpt>
      <trkpt lat="43.51035" lon="6.26921">
        <ele>279.2</ele>
        <time>2017-01-15T13:12:25Z</time>
      </trkpt>
      <trkpt lat="43.51029" lon="6.26932">
        <ele>279.3</ele>
        <time>2017-01-15T13:12:35Z</time>
      </trkpt>
      <trkpt lat="43.51023" lon="6.26942">
        <ele>279.4</ele>
        <time>2017-01-15T13:12:44Z</time>
      </trkpt>
      <trkpt lat="43.51017" lon="6.26952">
        <ele>279.2</ele>
        <time>2017-01-15T13:12:54Z</time>
      </trkpt>
      <trkpt lat="43.51011" lon="6.26962">
        <ele>279</ele>
        <time>2017-01-15T13:13:03Z</time>
      </trkpt>
      <trkpt lat="43.51006" lon="6.26973">
        <ele>278.8</ele>
        <time>2017-01-15T13:13:16Z</time>
      </trkpt>
      <trkpt lat="43.51003" lon="6.26985">
        <ele>278.7</ele>
        <time>2017-01-15T13:13:24Z</time>
      </trkpt>
      <trkpt lat="43.50996" lon="6.26995">
        <ele>278.6</ele>
        <time>2017-01-15T13:13:33Z</time>
      </trkpt>
      <trkpt lat="43.50993" lon="6.27007">
        <ele>278.6</ele>
        <time>2017-01-15T13:13:45Z</time>
      </trkpt>
      <trkpt lat="43.50989" lon="6.27019">
        <ele>278.5</ele>
        <time>2017-01-15T13:14:00Z</time>
      </trkpt>
      <trkpt lat="43.50985" lon="6.27031">
        <ele>278.4</ele>
        <time>2017-01-15T13:14:11Z</time>
      </trkpt>
      <trkpt lat="43.5098" lon="6.27041">
        <ele>278.2</ele>
        <time>2017-01-15T13:14:19Z</time>
      </trkpt>
      <trkpt lat="43.50976" lon="6.27054">
        <ele>277.7</ele>
        <time>2017-01-15T13:14:28Z</time>
      </trkpt>
      <trkpt lat="43.50976" lon="6.27067">
        <ele>277.2</ele>
        <time>2017-01-15T13:14:35Z</time>
      </trkpt>
      <trkpt lat="43.50976" lon="6.2708">
        <ele>276.1</ele>
        <time>2017-01-15T13:14:47Z</time>
      </trkpt>
      <trkpt lat="43.50972" lon="6.27091">
        <ele>275.2</ele>
        <time>2017-01-15T13:14:56Z</time>
      </trkpt>
      <trkpt lat="43.50966" lon="6.27101">
        <ele>274.1</ele>
        <time>2017-01-15T13:15:09Z</time>
      </trkpt>
      <trkpt lat="43.50963" lon="6.27113">
        <ele>273.2</ele>
        <time>2017-01-15T13:15:20Z</time>
      </trkpt>
      <trkpt lat="43.5096" lon="6.27127">
        <ele>272.7</ele>
        <time>2017-01-15T13:15:30Z</time>
      </trkpt>
      <trkpt lat="43.50956" lon="6.27138">
        <ele>272</ele>
        <time>2017-01-15T13:15:39Z</time>
      </trkpt>
      <trkpt lat="43.50953" lon="6.27151">
        <ele>271</ele>
        <time>2017-01-15T13:15:49Z</time>
      </trkpt>
      <trkpt lat="43.50946" lon="6.2716">
        <ele>270.6</ele>
        <time>2017-01-15T13:15:54Z</time>
      </trkpt>
      <trkpt lat="43.50943" lon="6.27171">
        <ele>269.8</ele>
        <time>2017-01-15T13:16:03Z</time>
      </trkpt>
      <trkpt lat="43.50938" lon="6.27184">
        <ele>269.1</ele>
        <time>2017-01-15T13:16:11Z</time>
      </trkpt>
      <trkpt lat="43.50934" lon="6.27196">
        <ele>268.4</ele>
        <time>2017-01-15T13:16:21Z</time>
      </trkpt>
      <trkpt lat="43.50928" lon="6.27204">
        <ele>266.3</ele>
        <time>2017-01-15T13:17:23Z</time>
      </trkpt>
      <trkpt lat="43.50928" lon="6.27217">
        <ele>265.6</ele>
        <time>2017-01-15T13:18:31Z</time>
      </trkpt>
      <trkpt lat="43.50925" lon="6.2723">
        <ele>264.6</ele>
        <time>2017-01-15T13:18:50Z</time>
      </trkpt>
      <trkpt lat="43.50922" lon="6.27242">
        <ele>263.3</ele>
        <time>2017-01-15T13:19:02Z</time>
      </trkpt>
      <trkpt lat="43.5092" lon="6.27255">
        <ele>261.7</ele>
        <time>2017-01-15T13:19:13Z</time>
      </trkpt>
      <trkpt lat="43.50916" lon="6.27267">
        <ele>260.6</ele>
        <time>2017-01-15T13:19:21Z</time>
      </trkpt>
      <trkpt lat="43.50907" lon="6.27274">
        <ele>259.1</ele>
        <time>2017-01-15T13:19:32Z</time>
      </trkpt>
      <trkpt lat="43.50901" lon="6.27283">
        <ele>257.8</ele>
        <time>2017-01-15T13:19:41Z</time>
      </trkpt>
      <trkpt lat="43.50893" lon="6.27288">
        <ele>256.1</ele>
        <time>2017-01-15T13:19:54Z</time>
      </trkpt>
      <trkpt lat="43.50884" lon="6.2729">
        <ele>254.2</ele>
        <time>2017-01-15T13:20:05Z</time>
      </trkpt>
      <trkpt lat="43.50874" lon="6.2729">
        <ele>251.9</ele>
        <time>2017-01-15T13:20:19Z</time>
      </trkpt>
      <trkpt lat="43.50865" lon="6.2729">
        <ele>249.3</ele>
        <time>2017-01-15T13:20:44Z</time>
      </trkpt>
      <trkpt lat="43.50856" lon="6.27284">
        <ele>246.8</ele>
        <time>2017-01-15T13:21:58Z</time>
      </trkpt>
      <trkpt lat="43.50847" lon="6.27285">
        <ele>246</ele>
        <time>2017-01-15T13:22:07Z</time>
      </trkpt>
      <trkpt lat="43.50838" lon="6.27289">
        <ele>243.5</ele>
        <time>2017-01-15T13:22:31Z</time>
      </trkpt>
      <trkpt lat="43.5083" lon="6.27295">
        <ele>242.3</ele>
        <time>2017-01-15T13:22:44Z</time>
      </trkpt>
      <trkpt lat="43.50824" lon="6.27305">
        <ele>240.9</ele>
        <time>2017-01-15T13:22:59Z</time>
      </trkpt>
      <trkpt lat="43.50818" lon="6.27313">
        <ele>239.7</ele>
        <time>2017-01-15T13:23:10Z</time>
      </trkpt>
      <trkpt lat="43.50814" lon="6.27325">
        <ele>238.2</ele>
        <time>2017-01-15T13:23:21Z</time>
      </trkpt>
      <trkpt lat="43.50808" lon="6.27336">
        <ele>237.2</ele>
        <time>2017-01-15T13:23:31Z</time>
      </trkpt>
      <trkpt lat="43.50803" lon="6.27347">
        <ele>236</ele>
        <time>2017-01-15T13:23:40Z</time>
      </trkpt>
      <trkpt lat="43.50795" lon="6.27355">
        <ele>234.2</ele>
        <time>2017-01-15T13:23:51Z</time>
      </trkpt>
      <trkpt lat="43.50787" lon="6.27361">
        <ele>232.7</ele>
        <time>2017-01-15T13:24:02Z</time>
      </trkpt>
      <trkpt lat="43.5078" lon="6.27371">
        <ele>230.1</ele>
        <time>2017-01-15T13:24:22Z</time>
      </trkpt>
      <trkpt lat="43.50773" lon="6.27378">
        <ele>228.5</ele>
        <time>2017-01-15T13:24:33Z</time>
      </trkpt>
      <trkpt lat="43.50765" lon="6.27384">
        <ele>226.9</ele>
        <time>2017-01-15T13:24:47Z</time>
      </trkpt>
      <trkpt lat="43.50757" lon="6.27391">
        <ele>225.5</ele>
        <time>2017-01-15T13:25:05Z</time>
      </trkpt>
      <trkpt lat="43.5075" lon="6.27399">
        <ele>223.7</ele>
        <time>2017-01-15T13:25:45Z</time>
      </trkpt>
      <trkpt lat="43.50742" lon="6.27406">
        <ele>222.6</ele>
        <time>2017-01-15T13:26:01Z</time>
      </trkpt>
      <trkpt lat="43.50735" lon="6.27414">
        <ele>221.5</ele>
        <time>2017-01-15T13:26:18Z</time>
      </trkpt>
      <trkpt lat="43.50731" lon="6.27425">
        <ele>220.1</ele>
        <time>2017-01-15T13:26:33Z</time>
      </trkpt>
      <trkpt lat="43.50729" lon="6.27439">
        <ele>218.9</ele>
        <time>2017-01-15T13:26:47Z</time>
      </trkpt>
      <trkpt lat="43.50726" lon="6.27452">
        <ele>217.9</ele>
        <time>2017-01-15T13:26:57Z</time>
      </trkpt>
      <trkpt lat="43.50718" lon="6.2746">
        <ele>217.3</ele>
        <time>2017-01-15T13:27:04Z</time>
      </trkpt>
      <trkpt lat="43.50716" lon="6.27473">
        <ele>216.2</ele>
        <time>2017-01-15T13:27:13Z</time>
      </trkpt>
      <trkpt lat="43.50713" lon="6.27486">
        <ele>215</ele>
        <time>2017-01-15T13:27:24Z</time>
      </trkpt>
      <trkpt lat="43.50711" lon="6.27498">
        <ele>213.8</ele>
        <time>2017-01-15T13:27:33Z</time>
      </trkpt>
      <trkpt lat="43.50705" lon="6.27507">
        <ele>212.8</ele>
        <time>2017-01-15T13:27:42Z</time>
      </trkpt>
      <trkpt lat="43.50698" lon="6.27515">
        <ele>211.4</ele>
        <time>2017-01-15T13:27:53Z</time>
      </trkpt>
      <trkpt lat="43.50692" lon="6.27527">
        <ele>210.3</ele>
        <time>2017-01-15T13:28:04Z</time>
      </trkpt>
      <trkpt lat="43.50687" lon="6.27538">
        <ele>209.1</ele>
        <time>2017-01-15T13:28:14Z</time>
      </trkpt>
      <trkpt lat="43.50687" lon="6.27551">
        <ele>207.9</ele>
        <time>2017-01-15T13:28:23Z</time>
      </trkpt>
      <trkpt lat="43.50679" lon="6.27558">
        <ele>207</ele>
        <time>2017-01-15T13:28:31Z</time>
      </trkpt>
      <trkpt lat="43.50674" lon="6.27569">
        <ele>206.2</ele>
        <time>2017-01-15T13:28:41Z</time>
      </trkpt>
      <trkpt lat="43.50674" lon="6.27583">
        <ele>205.2</ele>
        <time>2017-01-15T13:28:53Z</time>
      </trkpt>
      <trkpt lat="43.50669" lon="6.27594">
        <ele>204.4</ele>
        <time>2017-01-15T13:29:05Z</time>
      </trkpt>
      <trkpt lat="43.50664" lon="6.27605">
        <ele>203.7</ele>
        <time>2017-01-15T13:29:13Z</time>
      </trkpt>
      <trkpt lat="43.50657" lon="6.27614">
        <ele>203.2</ele>
        <time>2017-01-15T13:29:21Z</time>
      </trkpt>
      <trkpt lat="43.50652" lon="6.27625">
        <ele>202.5</ele>
        <time>2017-01-15T13:29:32Z</time>
      </trkpt>
      <trkpt lat="43.50644" lon="6.27633">
        <ele>202.2</ele>
        <time>2017-01-15T13:29:42Z</time>
      </trkpt>
      <trkpt lat="43.50638" lon="6.27643">
        <ele>202</ele>
        <time>2017-01-15T13:29:50Z</time>
      </trkpt>
      <trkpt lat="43.50633" lon="6.27653">
        <ele>201.8</ele>
        <time>2017-01-15T13:29:56Z</time>
      </trkpt>
      <trkpt lat="43.50627" lon="6.27663">
        <ele>201.6</ele>
        <time>2017-01-15T13:30:03Z</time>
      </trkpt>
      <trkpt lat="43.50622" lon="6.27673">
        <ele>200.7</ele>
        <time>2017-01-15T13:30:13Z</time>
      </trkpt>
      <trkpt lat="43.50616" lon="6.27683">
        <ele>199</ele>
        <time>2017-01-15T13:30:28Z</time>
      </trkpt>
      <trkpt lat="43.50608" lon="6.2769">
        <ele>197.8</ele>
        <time>2017-01-15T13:30:37Z</time>
      </trkpt>
      <trkpt lat="43.50599" lon="6.27691">
        <ele>196.7</ele>
        <time>2017-01-15T13:30:46Z</time>
      </trkpt>
      <trkpt lat="43.5059" lon="6.2769">
        <ele>195.8</ele>
        <time>2017-01-15T13:31:00Z</time>
      </trkpt>
      <trkpt lat="43.50589" lon="6.27703">
        <ele>195.4</ele>
        <time>2017-01-15T13:31:10Z</time>
      </trkpt>
      <trkpt lat="43.50589" lon="6.27715">
        <ele>194.8</ele>
        <time>2017-01-15T13:31:25Z</time>
      </trkpt>
      <trkpt lat="43.50581" lon="6.27721">
        <ele>193.7</ele>
        <time>2017-01-15T13:31:54Z</time>
      </trkpt>
      <trkpt lat="43.50572" lon="6.27719">
        <ele>191.3</ele>
        <time>2017-01-15T13:33:06Z</time>
      </trkpt>
      <trkpt lat="43.50564" lon="6.27726">
        <ele>190.9</ele>
        <time>2017-01-15T13:33:18Z</time>
      </trkpt>
      <trkpt lat="43.50556" lon="6.27731">
        <ele>189.7</ele>
        <time>2017-01-15T13:33:30Z</time>
      </trkpt>
      <trkpt lat="43.50547" lon="6.27735">
        <ele>188.4</ele>
        <time>2017-01-15T13:33:42Z</time>
      </trkpt>
      <trkpt lat="43.50538" lon="6.27739">
        <ele>187.8</ele>
        <time>2017-01-15T13:33:50Z</time>
      </trkpt>
      <trkpt lat="43.50531" lon="6.27746">
        <ele>186.8</ele>
        <time>2017-01-15T13:34:01Z</time>
      </trkpt>
      <trkpt lat="43.50524" lon="6.27756">
        <ele>186</ele>
        <time>2017-01-15T13:34:10Z</time>
      </trkpt>
      <trkpt lat="43.50517" lon="6.27763">
        <ele>185.4</ele>
        <time>2017-01-15T13:34:15Z</time>
      </trkpt>
      <trkpt lat="43.50511" lon="6.27773">
        <ele>184.6</ele>
        <time>2017-01-15T13:34:22Z</time>
      </trkpt>
      <trkpt lat="43.50504" lon="6.27784">
        <ele>184</ele>
        <time>2017-01-15T13:34:28Z</time>
      </trkpt>
      <trkpt lat="43.505" lon="6.27796">
        <ele>183.5</ele>
        <time>2017-01-15T13:34:34Z</time>
      </trkpt>
      <trkpt lat="43.50494" lon="6.27806">
        <ele>182.9</ele>
        <time>2017-01-15T13:34:44Z</time>
      </trkpt>
      <trkpt lat="43.50486" lon="6.27815">
        <ele>182.4</ele>
        <time>2017-01-15T13:34:54Z</time>
      </trkpt>
      <trkpt lat="43.50478" lon="6.27821">
        <ele>181.7</ele>
        <time>2017-01-15T13:35:04Z</time>
      </trkpt>
      <trkpt lat="43.5047" lon="6.27827">
        <ele>181.1</ele>
        <time>2017-01-15T13:35:10Z</time>
      </trkpt>
      <trkpt lat="43.5046" lon="6.27831">
        <ele>180.2</ele>
        <time>2017-01-15T13:35:17Z</time>
      </trkpt>
      <trkpt lat="43.50451" lon="6.27834">
        <ele>179.6</ele>
        <time>2017-01-15T13:35:24Z</time>
      </trkpt>
      <trkpt lat="43.50443" lon="6.27842">
        <ele>178.6</ele>
        <time>2017-01-15T13:35:33Z</time>
      </trkpt>
      <trkpt lat="43.5044" lon="6.27856">
        <ele>177.8</ele>
        <time>2017-01-15T13:35:42Z</time>
      </trkpt>
      <trkpt lat="43.50434" lon="6.27867">
        <ele>177</ele>
        <time>2017-01-15T13:35:51Z</time>
      </trkpt>
      <trkpt lat="43.50426" lon="6.27873">
        <ele>176.3</ele>
        <time>2017-01-15T13:35:58Z</time>
      </trkpt>
      <trkpt lat="43.50425" lon="6.27885">
        <ele>175.8</ele>
        <time>2017-01-15T13:36:04Z</time>
      </trkpt>
      <trkpt lat="43.50427" lon="6.27899">
        <ele>175.2</ele>
        <time>2017-01-15T13:36:11Z</time>
      </trkpt>
      <trkpt lat="43.50425" lon="6.27912">
        <ele>174.3</ele>
        <time>2017-01-15T13:36:20Z</time>
      </trkpt>
      <trkpt lat="43.50429" lon="6.27925">
        <ele>173.3</ele>
        <time>2017-01-15T13:36:29Z</time>
      </trkpt>
      <trkpt lat="43.50432" lon="6.27937">
        <ele>172.9</ele>
        <time>2017-01-15T13:36:36Z</time>
      </trkpt>
      <trkpt lat="43.50435" lon="6.2795">
        <ele>171.9</ele>
        <time>2017-01-15T13:36:44Z</time>
      </trkpt>
      <trkpt lat="43.50439" lon="6.27962">
        <ele>171.2</ele>
        <time>2017-01-15T13:36:51Z</time>
      </trkpt>
      <trkpt lat="43.5044" lon="6.27975">
        <ele>170.2</ele>
        <time>2017-01-15T13:36:59Z</time>
      </trkpt>
      <trkpt lat="43.50444" lon="6.27987">
        <ele>169.2</ele>
        <time>2017-01-15T13:37:07Z</time>
      </trkpt>
      <trkpt lat="43.50449" lon="6.28">
        <ele>168</ele>
        <time>2017-01-15T13:37:17Z</time>
      </trkpt>
      <trkpt lat="43.50453" lon="6.28011">
        <ele>167.4</ele>
        <time>2017-01-15T13:37:24Z</time>
      </trkpt>
      <trkpt lat="43.50461" lon="6.28021">
        <ele>167</ele>
        <time>2017-01-15T13:37:32Z</time>
      </trkpt>
      <trkpt lat="43.50469" lon="6.28029">
        <ele>166.8</ele>
        <time>2017-01-15T13:37:40Z</time>
      </trkpt>
      <trkpt lat="43.50475" lon="6.28038">
        <ele>166.7</ele>
        <time>2017-01-15T13:37:45Z</time>
      </trkpt>
      <trkpt lat="43.50482" lon="6.28047">
        <ele>166.6</ele>
        <time>2017-01-15T13:37:53Z</time>
      </trkpt>
      <trkpt lat="43.5049" lon="6.28054">
        <ele>166.5</ele>
        <time>2017-01-15T13:38:00Z</time>
      </trkpt>
      <trkpt lat="43.50498" lon="6.2806">
        <ele>166.5</ele>
        <time>2017-01-15T13:38:07Z</time>
      </trkpt>
      <trkpt lat="43.50506" lon="6.28066">
        <ele>167</ele>
        <time>2017-01-15T13:38:15Z</time>
      </trkpt>
      <trkpt lat="43.50514" lon="6.28073">
        <ele>167.5</ele>
        <time>2017-01-15T13:38:24Z</time>
      </trkpt>
      <trkpt lat="43.50517" lon="6.28086">
        <ele>167.7</ele>
        <time>2017-01-15T13:38:32Z</time>
      </trkpt>
      <trkpt lat="43.50519" lon="6.28098">
        <ele>168.3</ele>
        <time>2017-01-15T13:38:42Z</time>
      </trkpt>
      <trkpt lat="43.5052" lon="6.28112">
        <ele>169.5</ele>
        <time>2017-01-15T13:38:54Z</time>
      </trkpt>
      <trkpt lat="43.50524" lon="6.28123">
        <ele>170.2</ele>
        <time>2017-01-15T13:39:02Z</time>
      </trkpt>
      <trkpt lat="43.50529" lon="6.28135">
        <ele>171.7</ele>
        <time>2017-01-15T13:39:11Z</time>
      </trkpt>
      <trkpt lat="43.50534" lon="6.28145">
        <ele>173</ele>
        <time>2017-01-15T13:39:20Z</time>
      </trkpt>
      <trkpt lat="43.5054" lon="6.28155">
        <ele>173.9</ele>
        <time>2017-01-15T13:39:28Z</time>
      </trkpt>
      <trkpt lat="43.50547" lon="6.28166">
        <ele>175.6</ele>
        <time>2017-01-15T13:39:39Z</time>
      </trkpt>
      <trkpt lat="43.50551" lon="6.28177">
        <ele>176.8</ele>
        <time>2017-01-15T13:39:51Z</time>
      </trkpt>
      <trkpt lat="43.50552" lon="6.28189">
        <ele>178.3</ele>
        <time>2017-01-15T13:40:01Z</time>
      </trkpt>
      <trkpt lat="43.50555" lon="6.28202">
        <ele>179.1</ele>
        <time>2017-01-15T13:40:11Z</time>
      </trkpt>
      <trkpt lat="43.50561" lon="6.28213">
        <ele>179.9</ele>
        <time>2017-01-15T13:40:21Z</time>
      </trkpt>
      <trkpt lat="43.50563" lon="6.28227">
        <ele>180.7</ele>
        <time>2017-01-15T13:40:31Z</time>
      </trkpt>
      <trkpt lat="43.50566" lon="6.28241">
        <ele>181.3</ele>
        <time>2017-01-15T13:40:39Z</time>
      </trkpt>
      <trkpt lat="43.50567" lon="6.28254">
        <ele>182</ele>
        <time>2017-01-15T13:40:51Z</time>
      </trkpt>
      <trkpt lat="43.5057" lon="6.28266">
        <ele>182.7</ele>
        <time>2017-01-15T13:40:59Z</time>
      </trkpt>
      <trkpt lat="43.50575" lon="6.28278">
        <ele>183.2</ele>
        <time>2017-01-15T13:41:07Z</time>
      </trkpt>
      <trkpt lat="43.50579" lon="6.28291">
        <ele>184.1</ele>
        <time>2017-01-15T13:41:15Z</time>
      </trkpt>
      <trkpt lat="43.50579" lon="6.28303">
        <ele>185.1</ele>
        <time>2017-01-15T13:41:26Z</time>
      </trkpt>
      <trkpt lat="43.50584" lon="6.28315">
        <ele>185.9</ele>
        <time>2017-01-15T13:41:34Z</time>
      </trkpt>
      <trkpt lat="43.50587" lon="6.28327">
        <ele>186.9</ele>
        <time>2017-01-15T13:41:42Z</time>
      </trkpt>
      <trkpt lat="43.50593" lon="6.28338">
        <ele>187.6</ele>
        <time>2017-01-15T13:41:50Z</time>
      </trkpt>
      <trkpt lat="43.50598" lon="6.2835">
        <ele>188.3</ele>
        <time>2017-01-15T13:41:59Z</time>
      </trkpt>
      <trkpt lat="43.50601" lon="6.28362">
        <ele>189</ele>
        <time>2017-01-15T13:42:09Z</time>
      </trkpt>
      <trkpt lat="43.50602" lon="6.28375">
        <ele>190.1</ele>
        <time>2017-01-15T13:42:20Z</time>
      </trkpt>
      <trkpt lat="43.50606" lon="6.28388">
        <ele>190.8</ele>
        <time>2017-01-15T13:42:28Z</time>
      </trkpt>
      <trkpt lat="43.50608" lon="6.28401">
        <ele>191.5</ele>
        <time>2017-01-15T13:42:38Z</time>
      </trkpt>
      <trkpt lat="43.50609" lon="6.28414">
        <ele>191.9</ele>
        <time>2017-01-15T13:42:46Z</time>
      </trkpt>
      <trkpt lat="43.50609" lon="6.28427">
        <ele>192.1</ele>
        <time>2017-01-15T13:42:55Z</time>
      </trkpt>
      <trkpt lat="43.50611" lon="6.28441">
        <ele>192.1</ele>
        <time>2017-01-15T13:43:03Z</time>
      </trkpt>
      <trkpt lat="43.50611" lon="6.28456">
        <ele>191.9</ele>
        <time>2017-01-15T13:43:12Z</time>
      </trkpt>
      <trkpt lat="43.50609" lon="6.28468">
        <ele>191.8</ele>
        <time>2017-01-15T13:43:20Z</time>
      </trkpt>
      <trkpt lat="43.50607" lon="6.28481">
        <ele>191.7</ele>
        <time>2017-01-15T13:43:27Z</time>
      </trkpt>
      <trkpt lat="43.50604" lon="6.28494">
        <ele>191.9</ele>
        <time>2017-01-15T13:43:36Z</time>
      </trkpt>
      <trkpt lat="43.50602" lon="6.28506">
        <ele>191.9</ele>
        <time>2017-01-15T13:43:44Z</time>
      </trkpt>
      <trkpt lat="43.50599" lon="6.28519">
        <ele>191.9</ele>
        <time>2017-01-15T13:43:52Z</time>
      </trkpt>
      <trkpt lat="43.50596" lon="6.28533">
        <ele>191.9</ele>
        <time>2017-01-15T13:44:01Z</time>
      </trkpt>
      <trkpt lat="43.50598" lon="6.28545">
        <ele>192.2</ele>
        <time>2017-01-15T13:44:07Z</time>
      </trkpt>
      <trkpt lat="43.50597" lon="6.28559">
        <ele>192.3</ele>
        <time>2017-01-15T13:44:16Z</time>
      </trkpt>
      <trkpt lat="43.50596" lon="6.28571">
        <ele>192.4</ele>
        <time>2017-01-15T13:44:24Z</time>
      </trkpt>
      <trkpt lat="43.50592" lon="6.28583">
        <ele>192.5</ele>
        <time>2017-01-15T13:44:31Z</time>
      </trkpt>
      <trkpt lat="43.50593" lon="6.28596">
        <ele>192.9</ele>
        <time>2017-01-15T13:44:39Z</time>
      </trkpt>
      <trkpt lat="43.50596" lon="6.28608">
        <ele>193.2</ele>
        <time>2017-01-15T13:44:49Z</time>
      </trkpt>
      <trkpt lat="43.506" lon="6.2862">
        <ele>193.6</ele>
        <time>2017-01-15T13:44:56Z</time>
      </trkpt>
      <trkpt lat="43.50606" lon="6.28631">
        <ele>194.1</ele>
        <time>2017-01-15T13:45:04Z</time>
      </trkpt>
      <trkpt lat="43.5061" lon="6.28642">
        <ele>194.4</ele>
        <time>2017-01-15T13:45:14Z</time>
      </trkpt>
      <trkpt lat="43.50614" lon="6.28654">
        <ele>194.6</ele>
        <time>2017-01-15T13:45:21Z</time>
      </trkpt>
      <trkpt lat="43.50619" lon="6.28664">
        <ele>194.7</ele>
        <time>2017-01-15T13:45:29Z</time>
      </trkpt>
      <trkpt lat="43.50625" lon="6.28675">
        <ele>195.3</ele>
        <time>2017-01-15T13:45:39Z</time>
      </trkpt>
      <trkpt lat="43.5063" lon="6.28687">
        <ele>195.6</ele>
        <time>2017-01-15T13:45:48Z</time>
      </trkpt>
      <trkpt lat="43.50638" lon="6.28694">
        <ele>195.8</ele>
        <time>2017-01-15T13:45:54Z</time>
      </trkpt>
      <trkpt lat="43.50646" lon="6.28702">
        <ele>196.1</ele>
        <time>2017-01-15T13:46:02Z</time>
      </trkpt>
      <trkpt lat="43.50652" lon="6.28711">
        <ele>196.4</ele>
        <time>2017-01-15T13:46:14Z</time>
      </trkpt>
      <trkpt lat="43.5066" lon="6.28721">
        <ele>196.5</ele>
        <time>2017-01-15T13:46:22Z</time>
      </trkpt>
      <trkpt lat="43.50665" lon="6.28731">
        <ele>196.6</ele>
        <time>2017-01-15T13:46:30Z</time>
      </trkpt>
      <trkpt lat="43.5067" lon="6.28742">
        <ele>196.7</ele>
        <time>2017-01-15T13:46:40Z</time>
      </trkpt>
      <trkpt lat="43.50677" lon="6.28752">
        <ele>196.9</ele>
        <time>2017-01-15T13:46:48Z</time>
      </trkpt>
      <trkpt lat="43.50684" lon="6.28761">
        <ele>196.8</ele>
        <time>2017-01-15T13:46:56Z</time>
      </trkpt>
      <trkpt lat="43.50692" lon="6.28767">
        <ele>196.5</ele>
        <time>2017-01-15T13:47:04Z</time>
      </trkpt>
      <trkpt lat="43.50702" lon="6.28773">
        <ele>196.3</ele>
        <time>2017-01-15T13:47:12Z</time>
      </trkpt>
      <trkpt lat="43.5071" lon="6.28778">
        <ele>196.2</ele>
        <time>2017-01-15T13:47:20Z</time>
      </trkpt>
      <trkpt lat="43.50716" lon="6.28787">
        <ele>196.7</ele>
        <time>2017-01-15T13:48:20Z</time>
      </trkpt>
      <trkpt lat="43.50713" lon="6.28785">
        <ele>197.1</ele>
        <time>2017-01-15T13:49:12Z</time>
      </trkpt>
    </trkseg>
  </trk>
</gpx>